Observation data for Caprock Canyons on 01/16/2019      Previous  Date  Next       Current Mesonet Observations  Soil Data  Daily Summary Page  Observations in Plain Language
KQU1 160600Z 24018KT 11/03 A3009 RMK A01 T01060033  RH  061%=      5-min Rain = 0
KQU1 160601Z 25018G23KT 11/03 A3009 RMK A01 T01050033  RH  061%=      5-min Rain = 0
KQU1 160602Z 24018KT 11/03 A3009 RMK A01 T01060033  RH  061%=      5-min Rain = 0
KQU1 160603Z 25015KT 11/03 A3009 RMK A01 T01050032  RH  060%=      5-min Rain = 0
KQU1 160604Z 25016G22KT 11/03 A3008 RMK A01 T01050032  RH  060%=      5-min Rain = 0
KQU1 160605Z 25016KT 11/03 A3009 RMK A01 T01050031  RH  060%=      5-min Rain = 0
KQU1 160606Z 25017KT 10/03 A3008 RMK A01 T01040031  RH  060%=      5-min Rain = 0
KQU1 160607Z 25014KT 10/03 A3008 RMK A01 T01040030  RH  060%=      5-min Rain = 0
KQU1 160608Z 25015KT 10/03 A3009 RMK A01 T01030030  RH  060%=      5-min Rain = 0
KQU1 160609Z 25016KT 10/03 A3008 RMK A01 T01030030  RH  060%=      5-min Rain = 0
KQU1 160610Z 25017G22KT 10/03 A3008 RMK A01 T01030029  RH  060%=      5-min Rain = 0
KQU1 160611Z 25018KT 10/03 A3008 RMK A01 T01040029  RH  060%=      5-min Rain = 0
KQU1 160612Z 25017KT 10/03 A3008 RMK A01 T01040028  RH  059%=      5-min Rain = 0
KQU1 160613Z 25015KT 10/03 A3008 RMK A01 T01030028  RH  059%=      5-min Rain = 0
KQU1 160614Z 25016KT 10/03 A3008 RMK A01 T01030028  RH  060%=      5-min Rain = 0
KQU1 160615Z 25017KT 10/03 A3008 RMK A01 T01030028  RH  060%=      5-min Rain = 0
KQU1 160616Z 25018KT 10/03 A3008 RMK A01 T01030028  RH  060%=      5-min Rain = 0
KQU1 160617Z 25015KT 10/03 A3008 RMK A01 T01030027  RH  059%=      5-min Rain = 0
KQU1 160618Z 25017KT 10/03 A3009 RMK A01 T01030027  RH  059%=      5-min Rain = 0
KQU1 160619Z 25015KT 10/03 A3009 RMK A01 T01030027  RH  059%=      5-min Rain = 0
KQU1 160620Z 25015G20KT 10/03 A3009 RMK A01 T01030027  RH  059%=      5-min Rain = 0
KQU1 160621Z 25015KT 10/03 A3009 RMK A01 T01020026  RH  059%=      5-min Rain = 0
KQU1 160622Z 25013KT 10/03 A3009 RMK A01 T01020026  RH  059%=      5-min Rain = 0
KQU1 160623Z 26014KT 10/03 A3009 RMK A01 T01010026  RH  060%=      5-min Rain = 0
KQU1 160624Z 25015KT 10/03 A3008 RMK A01 T01000026  RH  060%=      5-min Rain = 0
KQU1 160625Z 26014KT 10/03 A3008 RMK A01 T01000026  RH  060%=      5-min Rain = 0
KQU1 160626Z 26015KT 10/03 A3008 RMK A01 T01000025  RH  060%=      5-min Rain = 0
KQU1 160627Z 26014KT 10/03 A3008 RMK A01 T01000025  RH  060%=      5-min Rain = 0
KQU1 160628Z 25015KT 10/02 A3008 RMK A01 T00990024  RH  060%=      5-min Rain = 0
KQU1 160629Z 25015KT 10/02 A3008 RMK A01 T00990024  RH  060%=      5-min Rain = 0
KQU1 160630Z 25014KT 10/02 A3008 RMK A01 T00990024  RH  060%=      5-min Rain = 0
KQU1 160631Z 26015KT 10/02 A3008 RMK A01 T00990024  RH  060%=      5-min Rain = 0
KQU1 160632Z 25016KT 10/02 A3008 RMK A01 T00990023  RH  060%=      5-min Rain = 0
KQU1 160633Z 26015KT 10/02 A3008 RMK A01 T00980023  RH  059%=      5-min Rain = 0
KQU1 160634Z 25013KT 10/02 A3008 RMK A01 T00980023  RH  059%=      5-min Rain = 0
KQU1 160635Z 26015KT 10/02 A3008 RMK A01 T00980022  RH  059%=      5-min Rain = 0
KQU1 160636Z 26014KT 10/02 A3008 RMK A01 T00980022  RH  059%=      5-min Rain = 0
KQU1 160637Z 26015KT 10/02 A3008 RMK A01 T00980022  RH  059%=      5-min Rain = 0
KQU1 160638Z 26014KT 10/02 A3008 RMK A01 T00980022  RH  059%=      5-min Rain = 0
KQU1 160639Z 26014KT 10/02 A3008 RMK A01 T00970021  RH  059%=      5-min Rain = 0
KQU1 160640Z 25014KT 10/02 A3008 RMK A01 T00970021  RH  059%=      5-min Rain = 0
KQU1 160641Z 26014KT 10/02 A3008 RMK A01 T00960021  RH  059%=      5-min Rain = 0
KQU1 160642Z 26014KT 10/02 A3008 RMK A01 T00960021  RH  059%=      5-min Rain = 0
KQU1 160643Z 26015KT 10/02 A3008 RMK A01 T00960021  RH  060%=      5-min Rain = 0
KQU1 160644Z 26015KT 10/02 A3008 RMK A01 T00960021  RH  060%=      5-min Rain = 0
KQU1 160645Z 26014KT 10/02 A3008 RMK A01 T00960021  RH  060%=      5-min Rain = 0
KQU1 160646Z 26015KT 10/02 A3008 RMK A01 T00950021  RH  060%=      5-min Rain = 0
KQU1 160647Z 26013KT 10/02 A3008 RMK A01 T00950021  RH  060%=      5-min Rain = 0
KQU1 160648Z 26013KT 09/02 A3008 RMK A01 T00940021  RH  060%=      5-min Rain = 0
KQU1 160649Z 26013G19KT 09/02 A3008 RMK A01 T00920021  RH  061%=      5-min Rain = 0
KQU1 160650Z 27014KT 09/02 A3008 RMK A01 T00920021  RH  061%=      5-min Rain = 0
KQU1 160651Z 26013KT 09/02 A3008 RMK A01 T00920021  RH  061%=      5-min Rain = 0
KQU1 160652Z 26015KT 09/02 A3008 RMK A01 T00910022  RH  062%=      5-min Rain = 0
KQU1 160653Z 26015KT 09/02 A3008 RMK A01 T00920022  RH  062%=      5-min Rain = 0
KQU1 160654Z 26014KT 09/02 A3008 RMK A01 T00920022  RH  062%=      5-min Rain = 0
KQU1 160655Z 26013KT 09/02 A3008 RMK A01 T00920022  RH  062%=      5-min Rain = 0
KQU1 160656Z 26015KT 09/02 A3008 RMK A01 T00910022  RH  062%=      5-min Rain = 0
KQU1 160657Z 26014KT 09/02 A3008 RMK A01 T00910023  RH  062%=      5-min Rain = 0
KQU1 160658Z 26016KT 09/02 A3008 RMK A01 T00910023  RH  062%=      5-min Rain = 0
KQU1 160659Z 26015KT 09/02 A3008 RMK A01 T00920023  RH  062%=      5-min Rain = 0
KQU1 160700Z 26014G19KT 09/02 A3008 RMK A01 T00920023  RH  062%=      5-min Rain = 0
KQU1 160701Z 26013KT 09/02 A3008 RMK A01 T00920023  RH  062%=      5-min Rain = 0
KQU1 160702Z 26013KT 09/02 A3007 RMK A01 T00910023  RH  062%=      5-min Rain = 0
KQU1 160703Z 27013KT 09/02 A3007 RMK A01 T00910022  RH  062%=      5-min Rain = 0
KQU1 160704Z 27013KT 09/02 A3007 RMK A01 T00900022  RH  062%=      5-min Rain = 0
KQU1 160705Z 26015KT 09/02 A3007 RMK A01 T00900022  RH  063%=      5-min Rain = 0
KQU1 160706Z 26016KT 09/02 A3007 RMK A01 T00900023  RH  062%=      5-min Rain = 0
KQU1 160707Z 26014KT 09/02 A3007 RMK A01 T00900022  RH  062%=      5-min Rain = 0
KQU1 160708Z 26016KT 09/02 A3007 RMK A01 T00900022  RH  062%=      5-min Rain = 0
KQU1 160709Z 26015KT 09/02 A3007 RMK A01 T00900022  RH  062%=      5-min Rain = 0
KQU1 160710Z 27014KT 09/02 A3007 RMK A01 T00900022  RH  062%=      5-min Rain = 0
KQU1 160711Z 27015KT 09/02 A3007 RMK A01 T00900022  RH  062%=      5-min Rain = 0
KQU1 160712Z 27015KT 09/02 A3007 RMK A01 T00900022  RH  063%=      5-min Rain = 0
KQU1 160713Z 27014KT 09/02 A3007 RMK A01 T00890022  RH  062%=      5-min Rain = 0
KQU1 160714Z 27014G19KT 09/02 A3007 RMK A01 T00890021  RH  063%=      5-min Rain = 0
KQU1 160715Z 27017KT 09/02 A3007 RMK A01 T00890022  RH  062%=      5-min Rain = 0
KQU1 160716Z 27017KT 09/02 A3007 RMK A01 T00890021  RH  062%=      5-min Rain = 0
KQU1 160717Z 27017KT 09/02 A3007 RMK A01 T00890021  RH  062%=      5-min Rain = 0
KQU1 160718Z 26017KT 09/02 A3007 RMK A01 T00890021  RH  062%=      5-min Rain = 0
KQU1 160719Z 27019KT 09/02 A3007 RMK A01 T00890021  RH  062%=      5-min Rain = 0
KQU1 160720Z 26016KT 09/02 A3007 RMK A01 T00900021  RH  062%=      5-min Rain = 0
KQU1 160721Z 26017G22KT 09/02 A3007 RMK A01 T00900021  RH  062%=      5-min Rain = 0
KQU1 160722Z 26014KT 09/02 A3007 RMK A01 T00900020  RH  062%=      5-min Rain = 0
KQU1 160723Z 26019G25KT 09/02 A3007 RMK A01 T00900021  RH  062%=      5-min Rain = 0
KQU1 160724Z 26017KT 09/02 A3007 RMK A01 T00910021  RH  061%=      5-min Rain = 0
KQU1 160725Z 27016G21KT 09/02 A3007 RMK A01 T00910020  RH  061%=      5-min Rain = 0
KQU1 160726Z 26016G21KT 09/02 A3007 RMK A01 T00910020  RH  061%=      5-min Rain = 0
KQU1 160727Z 26018G23KT 09/02 A3007 RMK A01 T00910020  RH  061%=      5-min Rain = 0
KQU1 160728Z 26017G24KT 09/02 A3007 RMK A01 T00910020  RH  061%=      5-min Rain = 0
KQU1 160729Z 27021KT 09/02 A3007 RMK A01 T00920020  RH  061%=      5-min Rain = 0
KQU1 160730Z 27020KT 09/02 A3007 RMK A01 T00930020  RH  060%=      5-min Rain = 0
KQU1 160731Z 27019G25KT 09/02 A3007 RMK A01 T00930020  RH  060%=      5-min Rain = 0
KQU1 160732Z 26020KT 09/02 A3007 RMK A01 T00930020  RH  060%=      5-min Rain = 0
KQU1 160733Z 26020G26KT 09/02 A3007 RMK A01 T00940020  RH  060%=      5-min Rain = 0
KQU1 160734Z 26018KT 09/02 A3007 RMK A01 T00930019  RH  060%=      5-min Rain = 0
KQU1 160735Z 26021G27KT 09/02 A3006 RMK A01 T00920019  RH  060%=      5-min Rain = 0
KQU1 160736Z 26021KT 09/02 A3006 RMK A01 T00930020  RH  060%=      5-min Rain = 0
KQU1 160737Z 26019KT 09/02 A3006 RMK A01 T00930019  RH  060%=      5-min Rain = 0
KQU1 160738Z 26021KT 09/02 A3006 RMK A01 T00930019  RH  060%=      5-min Rain = 0
KQU1 160739Z 26021KT 09/02 A3006 RMK A01 T00930019  RH  060%=      5-min Rain = 0
KQU1 160740Z 26020KT 09/02 A3006 RMK A01 T00930019  RH  060%=      5-min Rain = 0
KQU1 160741Z 26019KT 09/02 A3006 RMK A01 T00930019  RH  060%=      5-min Rain = 0
KQU1 160742Z 26018KT 09/02 A3007 RMK A01 T00930018  RH  059%=      5-min Rain = 0
KQU1 160743Z 26015KT 09/02 A3007 RMK A01 T00930018  RH  059%=      5-min Rain = 0
KQU1 160744Z 26017KT 09/02 A3007 RMK A01 T00920018  RH  060%=      5-min Rain = 0
KQU1 160745Z 26016KT 09/02 A3007 RMK A01 T00920018  RH  060%=      5-min Rain = 0
KQU1 160746Z 26017KT 09/02 A3007 RMK A01 T00910017  RH  060%=      5-min Rain = 0
KQU1 160747Z 26018KT 09/02 A3007 RMK A01 T00900017  RH  060%=      5-min Rain = 0
KQU1 160748Z 26019KT 09/02 A3007 RMK A01 T00880016  RH  061%=      5-min Rain = 0
KQU1 160749Z 26019G25KT 09/02 A3007 RMK A01 T00870016  RH  061%=      5-min Rain = 0
KQU1 160750Z 26019KT 09/02 A3007 RMK A01 T00860016  RH  061%=      5-min Rain = 0
KQU1 160751Z 26021KT 09/02 A3007 RMK A01 T00850016  RH  062%=      5-min Rain = 0
KQU1 160752Z 26019KT 09/02 A3007 RMK A01 T00850016  RH  062%=      5-min Rain = 0
KQU1 160753Z 26018KT 08/02 A3007 RMK A01 T00840016  RH  062%=      5-min Rain = 0
KQU1 160754Z 26017KT 08/02 A3007 RMK A01 T00830015  RH  062%=      5-min Rain = 0
KQU1 160755Z 26018KT 08/02 A3007 RMK A01 T00840016  RH  062%=      5-min Rain = 0
KQU1 160756Z 26019G24KT 08/02 A3007 RMK A01 T00840016  RH  062%=      5-min Rain = 0
KQU1 160757Z 26016KT 09/02 A3007 RMK A01 T00850016  RH  062%=      5-min Rain = 0
KQU1 160758Z 26018KT 09/02 A3007 RMK A01 T00850016  RH  062%=      5-min Rain = 0
KQU1 160759Z 26018KT 09/02 A3007 RMK A01 T00850016  RH  062%=      5-min Rain = 0
KQU1 160800Z 26017KT 09/02 A3007 RMK A01 T00860017  RH  062%=      5-min Rain = 0
KQU1 160801Z 26016G21KT 09/02 A3007 RMK A01 T00870017  RH  061%=      5-min Rain = 0
KQU1 160802Z 26017KT 09/02 A3007 RMK A01 T00870016  RH  061%=      5-min Rain = 0
KQU1 160803Z 26018KT 09/02 A3007 RMK A01 T00870015  RH  061%=      5-min Rain = 0
KQU1 160804Z 26018KT 09/01 A3007 RMK A01 T00870014  RH  060%=      5-min Rain = 0
KQU1 160805Z 26017KT 09/01 A3007 RMK A01 T00860014  RH  060%=      5-min Rain = 0
KQU1 160806Z 26017KT 09/01 A3007 RMK A01 T00850014  RH  061%=      5-min Rain = 0
KQU1 160807Z 26019KT 09/01 A3007 RMK A01 T00860014  RH  061%=      5-min Rain = 0
KQU1 160808Z 26017KT 09/01 A3007 RMK A01 T00850013  RH  061%=      5-min Rain = 0
KQU1 160809Z 26018KT 09/01 A3007 RMK A01 T00850013  RH  061%=      5-min Rain = 0
KQU1 160810Z 26017KT 08/01 A3007 RMK A01 T00840013  RH  061%=      5-min Rain = 0
KQU1 160811Z 26017KT 08/01 A3007 RMK A01 T00840014  RH  061%=      5-min Rain = 0
KQU1 160812Z 27019KT 08/01 A3007 RMK A01 T00840013  RH  061%=      5-min Rain = 0
KQU1 160813Z 26017KT 08/01 A3007 RMK A01 T00840013  RH  061%=      5-min Rain = 0
KQU1 160814Z 26018KT 08/01 A3007 RMK A01 T00840013  RH  061%=      5-min Rain = 0
KQU1 160815Z 26019G24KT 09/01 A3007 RMK A01 T00850013  RH  061%=      5-min Rain = 0
KQU1 160816Z 26019KT 09/01 A3007 RMK A01 T00850012  RH  060%=      5-min Rain = 0
KQU1 160817Z 26019KT 09/01 A3007 RMK A01 T00850012  RH  060%=      5-min Rain = 0
KQU1 160818Z 26018KT 09/01 A3007 RMK A01 T00850012  RH  060%=      5-min Rain = 0
KQU1 160819Z 26018KT 09/01 A3007 RMK A01 T00850011  RH  060%=      5-min Rain = 0
KQU1 160820Z 26017KT 09/01 A3007 RMK A01 T00850011  RH  060%=      5-min Rain = 0
KQU1 160821Z 26014G19KT 09/01 A3007 RMK A01 T00850011  RH  060%=      5-min Rain = 0
KQU1 160822Z 26014KT 08/01 A3007 RMK A01 T00840011  RH  060%=      5-min Rain = 0
KQU1 160823Z 26016KT 08/01 A3007 RMK A01 T00840011  RH  060%=      5-min Rain = 0
KQU1 160824Z 27017KT 08/01 A3007 RMK A01 T00840011  RH  060%=      5-min Rain = 0
KQU1 160825Z 26016G21KT 08/01 A3007 RMK A01 T00840011  RH  060%=      5-min Rain = 0
KQU1 160826Z 27014KT 09/01 A3007 RMK A01 T00850011  RH  060%=      5-min Rain = 0
KQU1 160827Z 26014KT 09/01 A3007 RMK A01 T00850011  RH  060%=      5-min Rain = 0
KQU1 160828Z 27014KT 09/01 A3007 RMK A01 T00850011  RH  060%=      5-min Rain = 0
KQU1 160829Z 27016KT 09/01 A3007 RMK A01 T00850011  RH  060%=      5-min Rain = 0
KQU1 160830Z 26014KT 09/01 A3007 RMK A01 T00850011  RH  060%=      5-min Rain = 0
KQU1 160831Z 27015KT 09/01 A3007 RMK A01 T00850012  RH  060%=      5-min Rain = 0
KQU1 160832Z 27016KT 09/01 A3007 RMK A01 T00860012  RH  060%=      5-min Rain = 0
KQU1 160833Z 27014KT 09/01 A3007 RMK A01 T00860012  RH  060%=      5-min Rain = 0
KQU1 160834Z 27014KT 09/01 A3007 RMK A01 T00860012  RH  060%=      5-min Rain = 0
KQU1 160835Z 27012KT 09/01 A3007 RMK A01 T00850012  RH  060%=      5-min Rain = 0
KQU1 160836Z 27012KT 08/01 A3007 RMK A01 T00840012  RH  060%=      5-min Rain = 0
KQU1 160837Z 26012KT 08/01 A3007 RMK A01 T00840012  RH  061%=      5-min Rain = 0
KQU1 160838Z 27012KT 08/01 A3007 RMK A01 T00830012  RH  061%=      5-min Rain = 0
KQU1 160839Z 27013KT 08/01 A3007 RMK A01 T00820012  RH  061%=      5-min Rain = 0
KQU1 160840Z 26012KT 08/01 A3007 RMK A01 T00810012  RH  061%=      5-min Rain = 0
KQU1 160841Z 26012KT 08/01 A3007 RMK A01 T00810012  RH  062%=      5-min Rain = 0
KQU1 160842Z 26014KT 08/01 A3007 RMK A01 T00820013  RH  062%=      5-min Rain = 0
KQU1 160843Z 26012KT 08/01 A3007 RMK A01 T00830013  RH  061%=      5-min Rain = 0
KQU1 160844Z 26012KT 08/01 A3007 RMK A01 T00830013  RH  061%=      5-min Rain = 0
KQU1 160845Z 26011KT 08/01 A3007 RMK A01 T00830012  RH  061%=      5-min Rain = 0
KQU1 160846Z 26013KT 08/01 A3007 RMK A01 T00830013  RH  061%=      5-min Rain = 0
KQU1 160847Z 26012KT 08/01 A3007 RMK A01 T00830013  RH  061%=      5-min Rain = 0
KQU1 160848Z 27013KT 08/01 A3007 RMK A01 T00830013  RH  061%=      5-min Rain = 0
KQU1 160849Z 26013KT 08/01 A3007 RMK A01 T00830013  RH  061%=      5-min Rain = 0
KQU1 160850Z 26013KT 08/01 A3007 RMK A01 T00840013  RH  061%=      5-min Rain = 0
KQU1 160851Z 26014KT 08/01 A3007 RMK A01 T00840013  RH  061%=      5-min Rain = 0
KQU1 160852Z 26015KT 08/01 A3007 RMK A01 T00840013  RH  061%=      5-min Rain = 0
KQU1 160853Z 26015KT 09/01 A3007 RMK A01 T00850014  RH  061%=      5-min Rain = 0
KQU1 160854Z 26015KT 09/01 A3007 RMK A01 T00850014  RH  061%=      5-min Rain = 0
KQU1 160855Z 26015KT 09/01 A3006 RMK A01 T00860014  RH  061%=      5-min Rain = 0
KQU1 160856Z 26015KT 09/02 A3006 RMK A01 T00870015  RH  060%=      5-min Rain = 0
KQU1 160857Z 26016KT 09/02 A3006 RMK A01 T00890015  RH  060%=      5-min Rain = 0
KQU1 160858Z 26016KT 09/02 A3006 RMK A01 T00900016  RH  060%=      5-min Rain = 0
KQU1 160859Z 26015KT 09/02 A3006 RMK A01 T00920016  RH  059%=      5-min Rain = 0
KQU1 160900Z 26015KT 09/02 A3006 RMK A01 T00920015  RH  059%=      5-min Rain = 0
KQU1 160901Z 26015KT 09/02 A3006 RMK A01 T00920015  RH  059%=      5-min Rain = 0
KQU1 160902Z 26015KT 09/02 A3006 RMK A01 T00930015  RH  058%=      5-min Rain = 0
KQU1 160903Z 26015KT 09/02 A3006 RMK A01 T00920015  RH  058%=      5-min Rain = 0
KQU1 160904Z 26014KT 09/02 A3006 RMK A01 T00930015  RH  058%=      5-min Rain = 0
KQU1 160905Z 27014KT 09/02 A3006 RMK A01 T00930016  RH  059%=      5-min Rain = 0
KQU1 160906Z 27016KT 09/02 A3006 RMK A01 T00930016  RH  058%=      5-min Rain = 0
KQU1 160907Z 27015KT 09/02 A3006 RMK A01 T00940016  RH  058%=      5-min Rain = 0
KQU1 160908Z 26016KT 09/02 A3006 RMK A01 T00940016  RH  058%=      5-min Rain = 0
KQU1 160909Z 26017KT 09/02 A3007 RMK A01 T00930016  RH  058%=      5-min Rain = 0
KQU1 160910Z 27017KT 09/02 A3007 RMK A01 T00940016  RH  058%=      5-min Rain = 0
KQU1 160911Z 27019KT 09/02 A3007 RMK A01 T00930016  RH  058%=      5-min Rain = 0
KQU1 160912Z 26018KT 09/02 A3007 RMK A01 T00940016  RH  058%=      5-min Rain = 0
KQU1 160913Z 27015KT 09/02 A3007 RMK A01 T00930015  RH  058%=      5-min Rain = 0
KQU1 160914Z 26017KT 09/02 A3007 RMK A01 T00930015  RH  058%=      5-min Rain = 0
KQU1 160915Z 26015KT 09/02 A3007 RMK A01 T00930015  RH  058%=      5-min Rain = 0
KQU1 160916Z 26015KT 09/02 A3007 RMK A01 T00920015  RH  058%=      5-min Rain = 0
KQU1 160917Z 26016KT 09/01 A3007 RMK A01 T00920014  RH  058%=      5-min Rain = 0
KQU1 160918Z 27017KT 09/02 A3007 RMK A01 T00910015  RH  059%=      5-min Rain = 0
KQU1 160919Z 26017KT 09/02 A3007 RMK A01 T00920015  RH  058%=      5-min Rain = 0
KQU1 160920Z 26017KT 09/01 A3007 RMK A01 T00920014  RH  058%=      5-min Rain = 0
KQU1 160921Z 27019KT 09/01 A3007 RMK A01 T00920014  RH  058%=      5-min Rain = 0
KQU1 160922Z 26020KT 09/02 A3007 RMK A01 T00930015  RH  058%=      5-min Rain = 0
KQU1 160923Z 26017KT 09/01 A3007 RMK A01 T00930014  RH  058%=      5-min Rain = 0
KQU1 160924Z 26018KT 09/01 A3007 RMK A01 T00920014  RH  058%=      5-min Rain = 0
KQU1 160925Z 26016KT 09/01 A3007 RMK A01 T00920014  RH  058%=      5-min Rain = 0
KQU1 160926Z 27018KT 09/01 A3007 RMK A01 T00920014  RH  058%=      5-min Rain = 0
KQU1 160927Z 27016KT 09/01 A3007 RMK A01 T00930014  RH  058%=      5-min Rain = 0
KQU1 160928Z 27018KT 09/01 A3007 RMK A01 T00930014  RH  058%=      5-min Rain = 0
KQU1 160929Z 27018KT 09/01 A3007 RMK A01 T00940014  RH  057%=      5-min Rain = 0
KQU1 160930Z 27019KT 09/01 A3007 RMK A01 T00940014  RH  057%=      5-min Rain = 0
KQU1 160931Z 26021KT 10/01 A3006 RMK A01 T00950014  RH  057%=      5-min Rain = 0
KQU1 160932Z 27019KT 10/01 A3006 RMK A01 T00950014  RH  057%=      5-min Rain = 0
KQU1 160933Z 27020KT 10/01 A3006 RMK A01 T00950014  RH  057%=      5-min Rain = 0
KQU1 160934Z 26019KT 10/01 A3006 RMK A01 T00960014  RH  057%=      5-min Rain = 0
KQU1 160935Z 27019KT 10/01 A3006 RMK A01 T00960014  RH  057%=      5-min Rain = 0
KQU1 160936Z 26019KT 10/01 A3006 RMK A01 T00960014  RH  057%=      5-min Rain = 0
KQU1 160937Z 26018KT 10/01 A3006 RMK A01 T00960014  RH  057%=      5-min Rain = 0
KQU1 160938Z 26021KT 10/02 A3006 RMK A01 T00960015  RH  057%=      5-min Rain = 0
KQU1 160939Z 26020KT 10/02 A3006 RMK A01 T00970015  RH  057%=      5-min Rain = 0
KQU1 160940Z 27021KT 10/02 A3006 RMK A01 T00970015  RH  056%=      5-min Rain = 0
KQU1 160941Z 27020KT 10/02 A3006 RMK A01 T00980015  RH  056%=      5-min Rain = 0
KQU1 160942Z 27021KT 10/02 A3006 RMK A01 T00990015  RH  056%=      5-min Rain = 0
KQU1 160943Z 26018KT 10/02 A3006 RMK A01 T01000015  RH  055%=      5-min Rain = 0
KQU1 160944Z 27020KT 10/02 A3006 RMK A01 T01000015  RH  055%=      5-min Rain = 0
KQU1 160945Z 27021KT 10/02 A3006 RMK A01 T01000015  RH  055%=      5-min Rain = 0
KQU1 160946Z 27020KT 10/02 A3006 RMK A01 T01000015  RH  055%=      5-min Rain = 0
KQU1 160947Z 26018KT 10/02 A3006 RMK A01 T01000015  RH  055%=      5-min Rain = 0
KQU1 160948Z 27018KT 10/02 A3006 RMK A01 T01000015  RH  055%=      5-min Rain = 0
KQU1 160949Z 27018KT 10/01 A3006 RMK A01 T00990014  RH  056%=      5-min Rain = 0
KQU1 160950Z 27017KT 10/02 A3006 RMK A01 T00990015  RH  056%=      5-min Rain = 0
KQU1 160951Z 27018G23KT 10/02 A3006 RMK A01 T00990015  RH  056%=      5-min Rain = 0
KQU1 160952Z 26018KT 10/01 A3006 RMK A01 T00990014  RH  055%=      5-min Rain = 0
KQU1 160953Z 27016KT 10/01 A3006 RMK A01 T00990014  RH  055%=      5-min Rain = 0
KQU1 160954Z 27017G22KT 10/01 A3006 RMK A01 T00990014  RH  056%=      5-min Rain = 0
KQU1 160955Z 27018KT 10/01 A3006 RMK A01 T01000014  RH  055%=      5-min Rain = 0
KQU1 160956Z 27017KT 10/01 A3006 RMK A01 T01000014  RH  055%=      5-min Rain = 0
KQU1 160957Z 27016KT 10/01 A3007 RMK A01 T00990014  RH  055%=      5-min Rain = 0
KQU1 160958Z 27017KT 10/01 A3006 RMK A01 T00980014  RH  056%=      5-min Rain = 0
KQU1 160959Z 26017KT 10/01 A3006 RMK A01 T00970014  RH  056%=      5-min Rain = 0
KQU1 161000Z 26016KT 10/01 A3006 RMK A01 T00980014  RH  056%=      5-min Rain = 0
KQU1 161001Z 27018KT 10/02 A3006 RMK A01 T00980015  RH  056%=      5-min Rain = 0
KQU1 161002Z 27020KT 10/02 A3006 RMK A01 T00990015  RH  056%=      5-min Rain = 0
KQU1 161003Z 27019KT 10/02 A3006 RMK A01 T00990015  RH  056%=      5-min Rain = 0
KQU1 161004Z 26018KT 10/02 A3006 RMK A01 T00990015  RH  056%=      5-min Rain = 0
KQU1 161005Z 26018KT 10/02 A3006 RMK A01 T00990015  RH  056%=      5-min Rain = 0
KQU1 161006Z 26019KT 10/02 A3006 RMK A01 T00990015  RH  056%=      5-min Rain = 0
KQU1 161007Z 26020KT 10/02 A3006 RMK A01 T00990015  RH  056%=      5-min Rain = 0
KQU1 161008Z 27022KT 10/02 A3006 RMK A01 T00990015  RH  056%=      5-min Rain = 0
KQU1 161009Z 27019KT 10/02 A3006 RMK A01 T00990015  RH  056%=      5-min Rain = 0
KQU1 161010Z 26020KT 10/02 A3006 RMK A01 T00990015  RH  056%=      5-min Rain = 0
KQU1 161011Z 27020KT 10/02 A3006 RMK A01 T00990015  RH  056%=      5-min Rain = 0
KQU1 161012Z 27020KT 10/02 A3006 RMK A01 T00990016  RH  056%=      5-min Rain = 0
KQU1 161013Z 27020KT 10/02 A3006 RMK A01 T00990016  RH  056%=      5-min Rain = 0
KQU1 161014Z 27019KT 10/02 A3006 RMK A01 T00990016  RH  056%=      5-min Rain = 0
KQU1 161015Z 27019KT 10/02 A3006 RMK A01 T00990016  RH  056%=      5-min Rain = 0
KQU1 161016Z 26019KT 10/02 A3006 RMK A01 T00990016  RH  056%=      5-min Rain = 0
KQU1 161017Z 27017KT 10/02 A3006 RMK A01 T00980016  RH  057%=      5-min Rain = 0
KQU1 161018Z 27018KT 10/02 A3006 RMK A01 T00980016  RH  057%=      5-min Rain = 0
KQU1 161019Z 27018KT 10/02 A3006 RMK A01 T00980017  RH  057%=      5-min Rain = 0
KQU1 161020Z 27018KT 10/02 A3006 RMK A01 T00980017  RH  057%=      5-min Rain = 0
KQU1 161021Z 27017KT 10/02 A3006 RMK A01 T00990017  RH  057%=      5-min Rain = 0
KQU1 161022Z 27018KT 10/02 A3006 RMK A01 T00990017  RH  057%=      5-min Rain = 0
KQU1 161023Z 27019KT 10/02 A3006 RMK A01 T00980017  RH  057%=      5-min Rain = 0
KQU1 161024Z 27019KT 10/02 A3006 RMK A01 T00980017  RH  057%=      5-min Rain = 0
KQU1 161025Z 27016KT 10/02 A3006 RMK A01 T00970018  RH  058%=      5-min Rain = 0
KQU1 161026Z 27013KT 10/02 A3006 RMK A01 T00960018  RH  058%=      5-min Rain = 0
KQU1 161027Z 27015KT 10/02 A3006 RMK A01 T00960018  RH  058%=      5-min Rain = 0
KQU1 161028Z 27015KT 10/02 A3006 RMK A01 T00960018  RH  059%=      5-min Rain = 0
KQU1 161029Z 27015KT 10/02 A3006 RMK A01 T00950018  RH  058%=      5-min Rain = 0
KQU1 161030Z 27016KT 09/02 A3006 RMK A01 T00940017  RH  059%=      5-min Rain = 0
KQU1 161031Z 27018KT 09/02 A3005 RMK A01 T00940017  RH  059%=      5-min Rain = 0
KQU1 161032Z 26018KT 09/02 A3005 RMK A01 T00940017  RH  059%=      5-min Rain = 0
KQU1 161033Z 27017G22KT 09/02 A3005 RMK A01 T00930017  RH  059%=      5-min Rain = 0
KQU1 161034Z 27017KT 09/02 A3005 RMK A01 T00930017  RH  059%=      5-min Rain = 0
KQU1 161035Z 27017KT 09/02 A3005 RMK A01 T00930017  RH  059%=      5-min Rain = 0
KQU1 161036Z 27016KT 09/02 A3005 RMK A01 T00930017  RH  059%=      5-min Rain = 0
KQU1 161037Z 27015KT 09/02 A3005 RMK A01 T00930017  RH  059%=      5-min Rain = 0
KQU1 161038Z 27016KT 09/02 A3005 RMK A01 T00930017  RH  059%=      5-min Rain = 0
KQU1 161039Z 27017KT 09/02 A3005 RMK A01 T00930017  RH  059%=      5-min Rain = 0
KQU1 161040Z 27018KT 09/02 A3005 RMK A01 T00940017  RH  059%=      5-min Rain = 0
KQU1 161041Z 27017KT 10/02 A3005 RMK A01 T00950017  RH  058%=      5-min Rain = 0
KQU1 161042Z 27018KT 10/02 A3005 RMK A01 T00950017  RH  058%=      5-min Rain = 0
KQU1 161043Z 27017KT 10/02 A3005 RMK A01 T00960017  RH  058%=      5-min Rain = 0
KQU1 161044Z 27020KT 10/02 A3005 RMK A01 T00960016  RH  058%=      5-min Rain = 0
KQU1 161045Z 27019KT 10/02 A3005 RMK A01 T00960016  RH  057%=      5-min Rain = 0
KQU1 161046Z 27019KT 10/02 A3005 RMK A01 T00970016  RH  057%=      5-min Rain = 0
KQU1 161047Z 27020KT 10/02 A3004 RMK A01 T00970017  RH  057%=      5-min Rain = 0
KQU1 161048Z 27020KT 10/02 A3004 RMK A01 T00970017  RH  057%=      5-min Rain = 0
KQU1 161049Z 27019KT 10/02 A3004 RMK A01 T00980016  RH  057%=      5-min Rain = 0
KQU1 161050Z 27018KT 10/02 A3004 RMK A01 T00980016  RH  057%=      5-min Rain = 0
KQU1 161051Z 27019KT 10/02 A3004 RMK A01 T00970016  RH  057%=      5-min Rain = 0
KQU1 161052Z 27018KT 10/02 A3004 RMK A01 T00960016  RH  057%=      5-min Rain = 0
KQU1 161053Z 27018KT 10/02 A3004 RMK A01 T00950015  RH  057%=      5-min Rain = 0
KQU1 161054Z 27019KT 10/02 A3004 RMK A01 T00950015  RH  058%=      5-min Rain = 0
KQU1 161055Z 27018KT 09/02 A3004 RMK A01 T00940016  RH  058%=      5-min Rain = 0
KQU1 161056Z 27018KT 09/02 A3004 RMK A01 T00940016  RH  058%=      5-min Rain = 0
KQU1 161057Z 27017KT 09/02 A3004 RMK A01 T00940016  RH  058%=      5-min Rain = 0
KQU1 161058Z 27016KT 09/02 A3004 RMK A01 T00940016  RH  058%=      5-min Rain = 0
KQU1 161059Z 27018KT 09/02 A3004 RMK A01 T00940015  RH  058%=      5-min Rain = 0
KQU1 161100Z 27017KT 10/02 A3004 RMK A01 T00950015  RH  058%=      5-min Rain = 0
KQU1 161101Z 27018KT 10/02 A3004 RMK A01 T00950015  RH  057%=      5-min Rain = 0
KQU1 161102Z 27016KT 10/02 A3004 RMK A01 T00950015  RH  057%=      5-min Rain = 0
KQU1 161103Z 27016KT 10/02 A3004 RMK A01 T00950015  RH  057%=      5-min Rain = 0
KQU1 161104Z 27018KT 09/02 A3004 RMK A01 T00940015  RH  058%=      5-min Rain = 0
KQU1 161105Z 26017G22KT 09/02 A3004 RMK A01 T00940015  RH  058%=      5-min Rain = 0
KQU1 161106Z 27020KT 09/02 A3004 RMK A01 T00940015  RH  058%=      5-min Rain = 0
KQU1 161107Z 27021KT 10/02 A3004 RMK A01 T00950015  RH  058%=      5-min Rain = 0
KQU1 161108Z 27021KT 10/02 A3004 RMK A01 T00950015  RH  057%=      5-min Rain = 0
KQU1 161109Z 27017KT 09/02 A3004 RMK A01 T00940015  RH  058%=      5-min Rain = 0
KQU1 161110Z 27015KT 09/02 A3004 RMK A01 T00930015  RH  058%=      5-min Rain = 0
KQU1 161111Z 28017KT 09/02 A3004 RMK A01 T00930015  RH  058%=      5-min Rain = 0
KQU1 161112Z 28016KT 09/02 A3004 RMK A01 T00930015  RH  058%=      5-min Rain = 0
KQU1 161113Z 27015KT 09/01 A3004 RMK A01 T00920014  RH  058%=      5-min Rain = 0
KQU1 161114Z 27018KT 09/01 A3004 RMK A01 T00930014  RH  058%=      5-min Rain = 0
KQU1 161115Z 27018KT 09/01 A3004 RMK A01 T00930014  RH  058%=      5-min Rain = 0
KQU1 161116Z 27018KT 09/01 A3004 RMK A01 T00940014  RH  058%=      5-min Rain = 0
KQU1 161117Z 27017KT 09/01 A3004 RMK A01 T00930014  RH  058%=      5-min Rain = 0
KQU1 161118Z 28016KT 09/01 A3004 RMK A01 T00930014  RH  058%=      5-min Rain = 0
KQU1 161119Z 27015KT 09/01 A3004 RMK A01 T00920014  RH  058%=      5-min Rain = 0
KQU1 161120Z 27014KT 09/01 A3004 RMK A01 T00920014  RH  058%=      5-min Rain = 0
KQU1 161121Z 28015KT 09/01 A3004 RMK A01 T00910014  RH  058%=      5-min Rain = 0
KQU1 161122Z 27016KT 09/01 A3004 RMK A01 T00910014  RH  058%=      5-min Rain = 0
KQU1 161123Z 27016KT 09/01 A3004 RMK A01 T00910014  RH  058%=      5-min Rain = 0
KQU1 161124Z 27016KT 09/01 A3004 RMK A01 T00920014  RH  058%=      5-min Rain = 0
KQU1 161125Z 27016KT 09/01 A3004 RMK A01 T00920014  RH  058%=      5-min Rain = 0
KQU1 161126Z 27018KT 09/01 A3004 RMK A01 T00920014  RH  058%=      5-min Rain = 0
KQU1 161127Z 27018KT 09/01 A3004 RMK A01 T00920014  RH  058%=      5-min Rain = 0
KQU1 161128Z 27015KT 09/01 A3004 RMK A01 T00920014  RH  058%=      5-min Rain = 0
KQU1 161129Z 28016KT 09/01 A3004 RMK A01 T00920014  RH  058%=      5-min Rain = 0
KQU1 161130Z 28015KT 09/01 A3004 RMK A01 T00920014  RH  058%=      5-min Rain = 0
KQU1 161131Z 28014KT 09/01 A3004 RMK A01 T00920014  RH  058%=      5-min Rain = 0
KQU1 161132Z 28014KT 09/01 A3004 RMK A01 T00920014  RH  058%=      5-min Rain = 0
KQU1 161133Z 28014KT 09/01 A3005 RMK A01 T00920014  RH  058%=      5-min Rain = 0
KQU1 161134Z 27016KT 09/01 A3005 RMK A01 T00920014  RH  058%=      5-min Rain = 0
KQU1 161135Z 28014KT 09/01 A3005 RMK A01 T00930014  RH  058%=      5-min Rain = 0
KQU1 161136Z 27012KT 09/01 A3005 RMK A01 T00930013  RH  057%=      5-min Rain = 0
KQU1 161137Z 28009KT 09/01 A3005 RMK A01 T00930013  RH  057%=      5-min Rain = 0
KQU1 161138Z 27011G17KT 09/01 A3005 RMK A01 T00920013  RH  058%=      5-min Rain = 0
KQU1 161139Z 27014KT 09/01 A3005 RMK A01 T00940014  RH  057%=      5-min Rain = 0
KQU1 161140Z 27013KT 09/01 A3005 RMK A01 T00940014  RH  057%=      5-min Rain = 0
KQU1 161141Z 28014KT 09/01 A3005 RMK A01 T00940014  RH  057%=      5-min Rain = 0
KQU1 161142Z 27012KT 09/01 A3005 RMK A01 T00940014  RH  057%=      5-min Rain = 0
KQU1 161143Z 27015KT 09/01 A3005 RMK A01 T00940014  RH  057%=      5-min Rain = 0
KQU1 161144Z 27012KT 10/01 A3005 RMK A01 T00950014  RH  057%=      5-min Rain = 0
KQU1 161145Z 27012KT 09/01 A3005 RMK A01 T00940013  RH  057%=      5-min Rain = 0
KQU1 161146Z 27012KT 09/01 A3005 RMK A01 T00940014  RH  057%=      5-min Rain = 0
KQU1 161147Z 27013KT 09/01 A3005 RMK A01 T00930013  RH  057%=      5-min Rain = 0
KQU1 161148Z 27015G21KT 09/01 A3005 RMK A01 T00930014  RH  058%=      5-min Rain = 0
KQU1 161149Z 27016KT 10/02 A3005 RMK A01 T00950015  RH  057%=      5-min Rain = 0
KQU1 161150Z 27015KT 10/02 A3004 RMK A01 T00960015  RH  057%=      5-min Rain = 0
KQU1 161151Z 27015KT 10/02 A3004 RMK A01 T00960015  RH  057%=      5-min Rain = 0
KQU1 161152Z 27014KT 10/02 A3004 RMK A01 T00960015  RH  057%=      5-min Rain = 0
KQU1 161153Z 27011G16KT 10/02 A3004 RMK A01 T00960015  RH  057%=      5-min Rain = 0
KQU1 161154Z 27012G17KT 10/01 A3004 RMK A01 T00950014  RH  057%=      5-min Rain = 0
KQU1 161155Z 27012KT 10/02 A3004 RMK A01 T00950015  RH  057%=      5-min Rain = 0
KQU1 161156Z 27015KT 10/02 A3004 RMK A01 T00950015  RH  057%=      5-min Rain = 0
KQU1 161157Z 27015KT 10/02 A3004 RMK A01 T00970016  RH  057%=      5-min Rain = 0
KQU1 161158Z 27012KT 10/02 A3004 RMK A01 T00970016  RH  057%=      5-min Rain = 0
KQU1 161159Z 27011KT 10/02 A3004 RMK A01 T00960015  RH  057%=      5-min Rain = 0
KQU1 161200Z 26012KT 10/02 A3005 RMK A01 T00950015  RH  058%=      5-min Rain = 0
KQU1 161201Z 26012KT 09/02 A3005 RMK A01 T00930015  RH  058%=      5-min Rain = 0
KQU1 161202Z 26013KT 09/02 A3005 RMK A01 T00920015  RH  059%=      5-min Rain = 0
KQU1 161203Z 26012KT 09/02 A3004 RMK A01 T00920016  RH  059%=      5-min Rain = 0
KQU1 161204Z 26014KT 09/02 A3004 RMK A01 T00920016  RH  059%=      5-min Rain = 0
KQU1 161205Z 26013KT 09/02 A3005 RMK A01 T00930017  RH  059%=      5-min Rain = 0
KQU1 161206Z 26013KT 09/02 A3005 RMK A01 T00930016  RH  059%=      5-min Rain = 0
KQU1 161207Z 26012KT 09/02 A3005 RMK A01 T00920016  RH  059%=      5-min Rain = 0
KQU1 161208Z 27012KT 09/02 A3005 RMK A01 T00920016  RH  059%=      5-min Rain = 0
KQU1 161209Z 27011KT 09/02 A3005 RMK A01 T00920015  RH  059%=      5-min Rain = 0
KQU1 161210Z 27012KT 09/02 A3005 RMK A01 T00920015  RH  059%=      5-min Rain = 0
KQU1 161211Z 26011KT 09/02 A3005 RMK A01 T00920015  RH  059%=      5-min Rain = 0
KQU1 161212Z 26012KT 09/02 A3005 RMK A01 T00910015  RH  059%=      5-min Rain = 0
KQU1 161213Z 27012KT 09/02 A3005 RMK A01 T00920015  RH  059%=      5-min Rain = 0
KQU1 161214Z 27011KT 09/02 A3005 RMK A01 T00920015  RH  058%=      5-min Rain = 0
KQU1 161215Z 26012KT 09/02 A3005 RMK A01 T00920015  RH  058%=      5-min Rain = 0
KQU1 161216Z 26012KT 09/01 A3005 RMK A01 T00920014  RH  058%=      5-min Rain = 0
KQU1 161217Z 26012KT 09/01 A3005 RMK A01 T00920014  RH  058%=      5-min Rain = 0
KQU1 161218Z 26013KT 09/01 A3005 RMK A01 T00920014  RH  058%=      5-min Rain = 0
KQU1 161219Z 26014KT 09/01 A3005 RMK A01 T00910013  RH  058%=      5-min Rain = 0
KQU1 161220Z 26015KT 09/01 A3005 RMK A01 T00910013  RH  058%=      5-min Rain = 0
KQU1 161221Z 26015KT 09/01 A3005 RMK A01 T00900013  RH  058%=      5-min Rain = 0
KQU1 161222Z 26015KT 09/01 A3005 RMK A01 T00900013  RH  059%=      5-min Rain = 0
KQU1 161223Z 26013KT 09/01 A3005 RMK A01 T00900013  RH  058%=      5-min Rain = 0
KQU1 161224Z 26013G19KT 09/01 A3005 RMK A01 T00900013  RH  059%=      5-min Rain = 0
KQU1 161225Z 26015KT 09/01 A3005 RMK A01 T00910013  RH  058%=      5-min Rain = 0
KQU1 161226Z 27014KT 09/01 A3005 RMK A01 T00910013  RH  058%=      5-min Rain = 0
KQU1 161227Z 27015KT 09/01 A3005 RMK A01 T00910013  RH  058%=      5-min Rain = 0
KQU1 161228Z 27014KT 09/01 A3005 RMK A01 T00920013  RH  058%=      5-min Rain = 0
KQU1 161229Z 27015KT 09/01 A3005 RMK A01 T00930013  RH  057%=      5-min Rain = 0
KQU1 161230Z 27013KT 09/01 A3005 RMK A01 T00930012  RH  057%=      5-min Rain = 0
KQU1 161231Z 27013KT 09/01 A3005 RMK A01 T00930012  RH  057%=      5-min Rain = 0
KQU1 161232Z 26013KT 09/01 A3005 RMK A01 T00930012  RH  057%=      5-min Rain = 0
KQU1 161233Z 26014KT 09/01 A3005 RMK A01 T00930011  RH  057%=      5-min Rain = 0
KQU1 161234Z 27014KT 09/01 A3005 RMK A01 T00930011  RH  057%=      5-min Rain = 0
KQU1 161235Z 27014KT 09/01 A3005 RMK A01 T00930011  RH  056%=      5-min Rain = 0
KQU1 161236Z 27014KT 09/01 A3005 RMK A01 T00930011  RH  056%=      5-min Rain = 0
KQU1 161237Z 27013KT 10/01 A3005 RMK A01 T00950011  RH  056%=      5-min Rain = 0
KQU1 161238Z 27013KT 10/01 A3005 RMK A01 T00950010  RH  055%=      5-min Rain = 0
KQU1 161239Z 27014KT 10/01 A3005 RMK A01 T00960010  RH  055%=      5-min Rain = 0
KQU1 161240Z 27014KT 10/01 A3005 RMK A01 T00960010  RH  055%=      5-min Rain = 0
KQU1 161241Z 27014KT 10/01 A3005 RMK A01 T00970010  RH  054%=      5-min Rain = 0
KQU1 161242Z 27016KT 10/01 A3005 RMK A01 T00970009  RH  054%=      5-min Rain = 0
KQU1 161243Z 27016KT 10/01 A3005 RMK A01 T00970009  RH  054%=      5-min Rain = 0
KQU1 161244Z 27014KT 10/01 A3006 RMK A01 T00960009  RH  055%=      5-min Rain = 0
KQU1 161245Z 27015KT 10/01 A3006 RMK A01 T00960009  RH  055%=      5-min Rain = 0
KQU1 161246Z 27015KT 10/01 A3006 RMK A01 T00960009  RH  055%=      5-min Rain = 0
KQU1 161247Z 27015KT 10/01 A3006 RMK A01 T00970009  RH  055%=      5-min Rain = 0
KQU1 161248Z 27013KT 10/01 A3006 RMK A01 T00970010  RH  054%=      5-min Rain = 0
KQU1 161249Z 27013KT 10/01 A3005 RMK A01 T00970009  RH  054%=      5-min Rain = 0
KQU1 161250Z 27014KT 10/01 A3005 RMK A01 T00970009  RH  054%=      5-min Rain = 0
KQU1 161251Z 27015KT 10/01 A3005 RMK A01 T00960009  RH  055%=      5-min Rain = 0
KQU1 161252Z 27014KT 10/01 A3005 RMK A01 T00970010  RH  055%=      5-min Rain = 0
KQU1 161253Z 27013KT 10/01 A3005 RMK A01 T00970010  RH  055%=      5-min Rain = 0
KQU1 161254Z 27014KT 10/01 A3005 RMK A01 T00960009  RH  055%=      5-min Rain = 0
KQU1 161255Z 27015KT 10/01 A3005 RMK A01 T00960009  RH  055%=      5-min Rain = 0
KQU1 161256Z 27014KT 10/01 A3005 RMK A01 T00960009  RH  055%=      5-min Rain = 0
KQU1 161257Z 27015KT 10/01 A3005 RMK A01 T00960009  RH  055%=      5-min Rain = 0
KQU1 161258Z 27015KT 10/01 A3005 RMK A01 T00950009  RH  055%=      5-min Rain = 0
KQU1 161259Z 27014KT 10/01 A3005 RMK A01 T00950009  RH  055%=      5-min Rain = 0
KQU1 161300Z 27015KT 10/01 A3005 RMK A01 T00950009  RH  055%=      5-min Rain = 0
KQU1 161301Z 27015KT 10/01 A3005 RMK A01 T00950010  RH  055%=      5-min Rain = 0
KQU1 161302Z 27015KT 10/01 A3005 RMK A01 T00950010  RH  055%=      5-min Rain = 0
KQU1 161303Z 27016KT 10/01 A3005 RMK A01 T00960011  RH  055%=      5-min Rain = 0
KQU1 161304Z 27014KT 10/01 A3005 RMK A01 T00970011  RH  055%=      5-min Rain = 0
KQU1 161305Z 26015KT 10/01 A3006 RMK A01 T00960010  RH  055%=      5-min Rain = 0
KQU1 161306Z 26015KT 10/01 A3005 RMK A01 T00960011  RH  055%=      5-min Rain = 0
KQU1 161307Z 27015KT 10/01 A3006 RMK A01 T00960011  RH  055%=      5-min Rain = 0
KQU1 161308Z 27015KT 10/01 A3006 RMK A01 T00960011  RH  056%=      5-min Rain = 0
KQU1 161309Z 27014KT 10/01 A3006 RMK A01 T00950011  RH  056%=      5-min Rain = 0
KQU1 161310Z 27015KT 09/01 A3006 RMK A01 T00940011  RH  056%=      5-min Rain = 0
KQU1 161311Z 27014KT 09/01 A3006 RMK A01 T00930011  RH  057%=      5-min Rain = 0
KQU1 161312Z 27015KT 09/01 A3006 RMK A01 T00920012  RH  057%=      5-min Rain = 0
KQU1 161313Z 27015KT 09/01 A3006 RMK A01 T00920011  RH  057%=      5-min Rain = 0
KQU1 161314Z 27014KT 09/01 A3006 RMK A01 T00910011  RH  057%=      5-min Rain = 0
KQU1 161315Z 27015KT 09/01 A3006 RMK A01 T00900012  RH  058%=      5-min Rain = 0
KQU1 161316Z 27015KT 09/01 A3006 RMK A01 T00910012  RH  058%=      5-min Rain = 0
KQU1 161317Z 27013KT 09/01 A3006 RMK A01 T00920012  RH  057%=      5-min Rain = 0
KQU1 161318Z 27013G18KT 09/01 A3006 RMK A01 T00920012  RH  057%=      5-min Rain = 0
KQU1 161319Z 27014KT 09/01 A3006 RMK A01 T00920012  RH  057%=      5-min Rain = 0
KQU1 161320Z 27016KT 09/01 A3006 RMK A01 T00930012  RH  057%=      5-min Rain = 0
KQU1 161321Z 27015KT 09/01 A3006 RMK A01 T00930012  RH  057%=      5-min Rain = 0
KQU1 161322Z 27015G21KT 09/01 A3006 RMK A01 T00920012  RH  057%=      5-min Rain = 0
KQU1 161323Z 27016KT 09/01 A3006 RMK A01 T00920012  RH  057%=      5-min Rain = 0
KQU1 161324Z 27015KT 09/01 A3006 RMK A01 T00920012  RH  057%=      5-min Rain = 0
KQU1 161325Z 27014KT 09/01 A3006 RMK A01 T00920012  RH  058%=      5-min Rain = 0
KQU1 161326Z 27013KT 09/01 A3006 RMK A01 T00910012  RH  058%=      5-min Rain = 0
KQU1 161327Z 26016KT 09/01 A3006 RMK A01 T00900013  RH  058%=      5-min Rain = 0
KQU1 161328Z 27013KT 09/01 A3006 RMK A01 T00900012  RH  058%=      5-min Rain = 0
KQU1 161329Z 27014KT 09/01 A3006 RMK A01 T00890012  RH  059%=      5-min Rain = 0
KQU1 161330Z 27015KT 09/01 A3006 RMK A01 T00870012  RH  059%=      5-min Rain = 0
KQU1 161331Z 27016KT 09/01 A3006 RMK A01 T00860012  RH  060%=      5-min Rain = 0
KQU1 161332Z 27015KT 09/01 A3006 RMK A01 T00850012  RH  060%=      5-min Rain = 0
KQU1 161333Z 27016KT 08/01 A3006 RMK A01 T00840012  RH  061%=      5-min Rain = 0
KQU1 161334Z 27016KT 08/01 A3006 RMK A01 T00830012  RH  061%=      5-min Rain = 0
KQU1 161335Z 27016KT 08/01 A3006 RMK A01 T00820012  RH  061%=      5-min Rain = 0
KQU1 161336Z 27016KT 08/01 A3005 RMK A01 T00810012  RH  062%=      5-min Rain = 0
KQU1 161337Z 27017KT 08/01 A3005 RMK A01 T00810013  RH  062%=      5-min Rain = 0
KQU1 161338Z 27016KT 08/01 A3005 RMK A01 T00810013  RH  062%=      5-min Rain = 0
KQU1 161339Z 27016KT 08/01 A3005 RMK A01 T00810013  RH  062%=      5-min Rain = 0
KQU1 161340Z 27016KT 08/01 A3005 RMK A01 T00810014  RH  062%=      5-min Rain = 0
KQU1 161341Z 27016KT 08/01 A3005 RMK A01 T00820014  RH  062%=      5-min Rain = 0
KQU1 161342Z 27016KT 08/01 A3005 RMK A01 T00820014  RH  062%=      5-min Rain = 0
KQU1 161343Z 27017KT 08/01 A3005 RMK A01 T00820014  RH  062%=      5-min Rain = 0
KQU1 161344Z 27018KT 08/02 A3005 RMK A01 T00830015  RH  062%=      5-min Rain = 0
KQU1 161345Z 27017KT 08/02 A3005 RMK A01 T00830015  RH  062%=      5-min Rain = 0
KQU1 161346Z 27016KT 08/01 A3005 RMK A01 T00830014  RH  062%=      5-min Rain = 0
KQU1 161347Z 27014KT 08/02 A3006 RMK A01 T00830015  RH  062%=      5-min Rain = 0
KQU1 161348Z 27014KT 08/02 A3006 RMK A01 T00830015  RH  062%=      5-min Rain = 0
KQU1 161349Z 27014KT 08/02 A3006 RMK A01 T00830015  RH  062%=      5-min Rain = 0
KQU1 161350Z 27013KT 08/02 A3006 RMK A01 T00840015  RH  062%=      5-min Rain = 0
KQU1 161351Z 27014KT 09/02 A3006 RMK A01 T00860015  RH  061%=      5-min Rain = 0
KQU1 161352Z 27014KT 09/02 A3006 RMK A01 T00880015  RH  060%=      5-min Rain = 0
KQU1 161353Z 27014KT 09/02 A3006 RMK A01 T00900015  RH  059%=      5-min Rain = 0
KQU1 161354Z 27015KT 09/01 A3006 RMK A01 T00910014  RH  059%=      5-min Rain = 0
KQU1 161355Z 27014KT 09/02 A3006 RMK A01 T00930015  RH  058%=      5-min Rain = 0
KQU1 161356Z 26013KT 09/01 A3006 RMK A01 T00930014  RH  058%=      5-min Rain = 0
KQU1 161357Z 26014KT 09/01 A3006 RMK A01 T00920014  RH  058%=      5-min Rain = 0
KQU1 161358Z 27015KT 09/01 A3006 RMK A01 T00910014  RH  058%=      5-min Rain = 0
KQU1 161359Z 27017KT 09/01 A3006 RMK A01 T00900013  RH  059%=      5-min Rain = 0
KQU1 161400Z 27017KT 09/01 A3006 RMK A01 T00900013  RH  059%=      5-min Rain = 0
KQU1 161401Z 27016KT 09/01 A3006 RMK A01 T00890013  RH  059%=      5-min Rain = 0
KQU1 161402Z 27015KT 09/01 A3006 RMK A01 T00880013  RH  059%=      5-min Rain = 0
KQU1 161403Z 27016KT 09/01 A3006 RMK A01 T00880013  RH  060%=      5-min Rain = 0
KQU1 161404Z 27016KT 09/01 A3006 RMK A01 T00870013  RH  060%=      5-min Rain = 0
KQU1 161405Z 27014KT 09/01 A3006 RMK A01 T00860013  RH  060%=      5-min Rain = 0
KQU1 161406Z 27014KT 09/01 A3006 RMK A01 T00870014  RH  060%=      5-min Rain = 0
KQU1 161407Z 26013KT 09/01 A3006 RMK A01 T00880014  RH  060%=      5-min Rain = 0
KQU1 161408Z 26014KT 09/01 A3006 RMK A01 T00880014  RH  060%=      5-min Rain = 0
KQU1 161409Z 26013KT 09/01 A3006 RMK A01 T00890014  RH  059%=      5-min Rain = 0
KQU1 161410Z 27012KT 09/01 A3006 RMK A01 T00900014  RH  059%=      5-min Rain = 0
KQU1 161411Z 26012KT 09/01 A3006 RMK A01 T00910014  RH  058%=      5-min Rain = 0
KQU1 161412Z 27013KT 09/01 A3006 RMK A01 T00920014  RH  058%=      5-min Rain = 0
KQU1 161413Z 26013KT 09/01 A3006 RMK A01 T00910014  RH  058%=      5-min Rain = 0
KQU1 161414Z 27015KT 09/01 A3006 RMK A01 T00910014  RH  058%=      5-min Rain = 0
KQU1 161415Z 27014KT 09/01 A3006 RMK A01 T00910014  RH  058%=      5-min Rain = 0
KQU1 161416Z 27015KT 09/01 A3006 RMK A01 T00920014  RH  058%=      5-min Rain = 0
KQU1 161417Z 27016KT 09/01 A3006 RMK A01 T00920014  RH  058%=      5-min Rain = 0
KQU1 161418Z 27016KT 09/01 A3006 RMK A01 T00930013  RH  058%=      5-min Rain = 0
KQU1 161419Z 27015KT 09/01 A3006 RMK A01 T00930013  RH  057%=      5-min Rain = 0
KQU1 161420Z 27015KT 09/01 A3006 RMK A01 T00930013  RH  057%=      5-min Rain = 0
KQU1 161421Z 27015KT 09/01 A3006 RMK A01 T00930013  RH  058%=      5-min Rain = 0
KQU1 161422Z 27016KT 09/01 A3006 RMK A01 T00930014  RH  057%=      5-min Rain = 0
KQU1 161423Z 27017KT 09/01 A3006 RMK A01 T00940014  RH  057%=      5-min Rain = 0
KQU1 161424Z 27016KT 09/01 A3006 RMK A01 T00930013  RH  058%=      5-min Rain = 0
KQU1 161425Z 27016KT 09/01 A3006 RMK A01 T00920014  RH  058%=      5-min Rain = 0
KQU1 161426Z 27015KT 09/01 A3006 RMK A01 T00920014  RH  058%=      5-min Rain = 0
KQU1 161427Z 27014KT 09/01 A3006 RMK A01 T00910014  RH  058%=      5-min Rain = 0
KQU1 161428Z 27014KT 09/01 A3007 RMK A01 T00910014  RH  059%=      5-min Rain = 0
KQU1 161429Z 27015KT 09/01 A3007 RMK A01 T00900014  RH  059%=      5-min Rain = 0
KQU1 161430Z 27014KT 09/02 A3007 RMK A01 T00910015  RH  059%=      5-min Rain = 0
KQU1 161431Z 27013KT 09/02 A3007 RMK A01 T00920015  RH  058%=      5-min Rain = 0
KQU1 161432Z 27014KT 09/02 A3007 RMK A01 T00930015  RH  058%=      5-min Rain = 0
KQU1 161433Z 27013KT 09/02 A3007 RMK A01 T00940015  RH  058%=      5-min Rain = 0
KQU1 161434Z 27012KT 10/02 A3007 RMK A01 T00950015  RH  057%=      5-min Rain = 0
KQU1 161435Z 27013KT 10/02 A3007 RMK A01 T00950015  RH  057%=      5-min Rain = 0
KQU1 161436Z 27014KT 10/01 A3007 RMK A01 T00950014  RH  057%=      5-min Rain = 0
KQU1 161437Z 27015KT 09/01 A3007 RMK A01 T00940014  RH  057%=      5-min Rain = 0
KQU1 161438Z 27015KT 09/01 A3007 RMK A01 T00920013  RH  058%=      5-min Rain = 0
KQU1 161439Z 27015KT 09/01 A3007 RMK A01 T00890014  RH  059%=      5-min Rain = 0
KQU1 161440Z 27015KT 09/01 A3007 RMK A01 T00880014  RH  060%=      5-min Rain = 0
KQU1 161441Z 27014KT 09/01 A3007 RMK A01 T00870014  RH  060%=      5-min Rain = 0
KQU1 161442Z 27014KT 09/02 A3007 RMK A01 T00870015  RH  060%=      5-min Rain = 0
KQU1 161443Z 27016KT 09/02 A3007 RMK A01 T00870015  RH  060%=      5-min Rain = 0
KQU1 161444Z 27014KT 09/02 A3007 RMK A01 T00880015  RH  060%=      5-min Rain = 0
KQU1 161445Z 27014KT 09/02 A3007 RMK A01 T00890015  RH  060%=      5-min Rain = 0
KQU1 161446Z 27015KT 09/02 A3007 RMK A01 T00890016  RH  060%=      5-min Rain = 0
KQU1 161447Z 27015KT 09/02 A3007 RMK A01 T00900016  RH  060%=      5-min Rain = 0
KQU1 161448Z 26014KT 09/02 A3007 RMK A01 T00910016  RH  060%=      5-min Rain = 0
KQU1 161449Z 26017KT 09/02 A3007 RMK A01 T00920016  RH  059%=      5-min Rain = 0
KQU1 161450Z 27016KT 09/02 A3007 RMK A01 T00930017  RH  059%=      5-min Rain = 0
KQU1 161451Z 27018KT 09/02 A3007 RMK A01 T00930016  RH  059%=      5-min Rain = 0
KQU1 161452Z 26018KT 09/02 A3007 RMK A01 T00940016  RH  058%=      5-min Rain = 0
KQU1 161453Z 26017KT 10/02 A3007 RMK A01 T00950017  RH  058%=      5-min Rain = 0
KQU1 161454Z 26018KT 10/02 A3007 RMK A01 T00960017  RH  058%=      5-min Rain = 0
KQU1 161455Z 26020KT 10/02 A3007 RMK A01 T00960017  RH  058%=      5-min Rain = 0
KQU1 161456Z 27017KT 10/02 A3007 RMK A01 T00960017  RH  058%=      5-min Rain = 0
KQU1 161457Z 26017KT 10/02 A3007 RMK A01 T00970018  RH  058%=      5-min Rain = 0
KQU1 161458Z 26017KT 10/02 A3007 RMK A01 T00980018  RH  058%=      5-min Rain = 0
KQU1 161459Z 27016KT 10/02 A3007 RMK A01 T00980018  RH  057%=      5-min Rain = 0
KQU1 161500Z 27017KT 10/02 A3007 RMK A01 T00990018  RH  057%=      5-min Rain = 0
KQU1 161501Z 26016KT 10/02 A3007 RMK A01 T00990018  RH  057%=      5-min Rain = 0
KQU1 161502Z 27016KT 10/02 A3007 RMK A01 T01000018  RH  057%=      5-min Rain = 0
KQU1 161503Z 27017G22KT 10/02 A3007 RMK A01 T01010018  RH  057%=      5-min Rain = 0
KQU1 161504Z 27018KT 10/02 A3007 RMK A01 T01020018  RH  056%=      5-min Rain = 0
KQU1 161505Z 26017KT 10/02 A3007 RMK A01 T01020018  RH  056%=      5-min Rain = 0
KQU1 161506Z 27018G23KT 10/02 A3007 RMK A01 T01030019  RH  056%=      5-min Rain = 0
KQU1 161507Z 26017KT 10/02 A3007 RMK A01 T01040019  RH  055%=      5-min Rain = 0
KQU1 161508Z 26021KT 10/02 A3007 RMK A01 T01040018  RH  055%=      5-min Rain = 0
KQU1 161509Z 26018KT 11/02 A3007 RMK A01 T01050018  RH  055%=      5-min Rain = 0
KQU1 161510Z 26019KT 11/02 A3007 RMK A01 T01050018  RH  055%=      5-min Rain = 0
KQU1 161511Z 26018KT 11/02 A3007 RMK A01 T01050018  RH  055%=      5-min Rain = 0
KQU1 161512Z 26018KT 11/02 A3007 RMK A01 T01060019  RH  055%=      5-min Rain = 0
KQU1 161513Z 26021KT 11/02 A3007 RMK A01 T01060018  RH  055%=      5-min Rain = 0
KQU1 161514Z 26019G25KT 11/02 A3007 RMK A01 T01070019  RH  055%=      5-min Rain = 0
KQU1 161515Z 27019G24KT 11/02 A3007 RMK A01 T01070018  RH  054%=      5-min Rain = 0
KQU1 161516Z 26022KT 11/02 A3007 RMK A01 T01070018  RH  054%=      5-min Rain = 0
KQU1 161517Z 26021KT 11/02 A3007 RMK A01 T01070018  RH  054%=      5-min Rain = 0
KQU1 161518Z 26019KT 11/02 A3007 RMK A01 T01070019  RH  055%=      5-min Rain = 0
KQU1 161519Z 26018KT 11/02 A3007 RMK A01 T01070019  RH  055%=      5-min Rain = 0
KQU1 161520Z 26017G22KT 11/02 A3007 RMK A01 T01080020  RH  055%=      5-min Rain = 0
KQU1 161521Z 26016KT 11/02 A3007 RMK A01 T01080020  RH  054%=      5-min Rain = 0
KQU1 161522Z 26018KT 11/02 A3007 RMK A01 T01080020  RH  054%=      5-min Rain = 0
KQU1 161523Z 26019KT 11/02 A3007 RMK A01 T01080019  RH  054%=      5-min Rain = 0
KQU1 161524Z 26016KT 11/02 A3007 RMK A01 T01090020  RH  054%=      5-min Rain = 0
KQU1 161525Z 26019KT 11/02 A3007 RMK A01 T01090020  RH  054%=      5-min Rain = 0
KQU1 161526Z 26017G22KT 11/02 A3007 RMK A01 T01090020  RH  054%=      5-min Rain = 0
KQU1 161527Z 26020KT 11/02 A3007 RMK A01 T01080019  RH  054%=      5-min Rain = 0
KQU1 161528Z 26018KT 11/02 A3007 RMK A01 T01080020  RH  055%=      5-min Rain = 0
KQU1 161529Z 26019KT 11/02 A3007 RMK A01 T01080020  RH  055%=      5-min Rain = 0
KQU1 161530Z 26018G23KT 11/02 A3007 RMK A01 T01080020  RH  055%=      5-min Rain = 0
KQU1 161531Z 26018KT 11/02 A3007 RMK A01 T01080021  RH  055%=      5-min Rain = 0
KQU1 161532Z 27016KT 11/02 A3007 RMK A01 T01090021  RH  055%=      5-min Rain = 0
KQU1 161533Z 26015KT 11/02 A3007 RMK A01 T01100022  RH  055%=      5-min Rain = 0
KQU1 161534Z 26015KT 11/02 A3007 RMK A01 T01110023  RH  054%=      5-min Rain = 0
KQU1 161535Z 26018KT 11/02 A3007 RMK A01 T01120022  RH  054%=      5-min Rain = 0
KQU1 161536Z 26019KT 11/02 A3007 RMK A01 T01130021  RH  053%=      5-min Rain = 0
KQU1 161537Z 26016KT 11/02 A3007 RMK A01 T01140022  RH  053%=      5-min Rain = 0
KQU1 161538Z 26018KT 12/02 A3007 RMK A01 T01150022  RH  053%=      5-min Rain = 0
KQU1 161539Z 26016KT 12/02 A3007 RMK A01 T01150022  RH  053%=      5-min Rain = 0
KQU1 161540Z 26018KT 12/02 A3007 RMK A01 T01170022  RH  052%=      5-min Rain = 0
KQU1 161541Z 26018KT 12/02 A3007 RMK A01 T01180021  RH  051%=      5-min Rain = 0
KQU1 161542Z 26017KT 12/02 A3007 RMK A01 T01200021  RH  051%=      5-min Rain = 0
KQU1 161543Z 26019KT 12/02 A3007 RMK A01 T01220021  RH  050%=      5-min Rain = 0
KQU1 161544Z 26019KT 12/02 A3007 RMK A01 T01220021  RH  050%=      5-min Rain = 0
KQU1 161545Z 26018KT 12/02 A3007 RMK A01 T01230021  RH  050%=      5-min Rain = 0
KQU1 161546Z 26021G26KT 12/02 A3007 RMK A01 T01230020  RH  049%=      5-min Rain = 0
KQU1 161547Z 27019KT 12/02 A3007 RMK A01 T01230021  RH  050%=      5-min Rain = 0
KQU1 161548Z 26018G23KT 12/02 A3007 RMK A01 T01230021  RH  050%=      5-min Rain = 0
KQU1 161549Z 26019G25KT 12/02 A3007 RMK A01 T01240021  RH  049%=      5-min Rain = 0
KQU1 161550Z 26018KT 13/02 A3007 RMK A01 T01250021  RH  049%=      5-min Rain = 0
KQU1 161551Z 26021KT 13/02 A3007 RMK A01 T01250021  RH  049%=      5-min Rain = 0
KQU1 161552Z 26021G26KT 13/02 A3007 RMK A01 T01250021  RH  049%=      5-min Rain = 0
KQU1 161553Z 25021G26KT 13/02 A3007 RMK A01 T01250021  RH  049%=      5-min Rain = 0
KQU1 161554Z 26017G22KT 13/02 A3007 RMK A01 T01260023  RH  049%=      5-min Rain = 0
KQU1 161555Z 26017KT 13/02 A3007 RMK A01 T01260022  RH  049%=      5-min Rain = 0
KQU1 161556Z 25016KT 13/02 A3007 RMK A01 T01270023  RH  049%=      5-min Rain = 0
KQU1 161557Z 25019KT 13/02 A3007 RMK A01 T01280022  RH  049%=      5-min Rain = 0
KQU1 161558Z 26018KT 13/02 A3007 RMK A01 T01270022  RH  049%=      5-min Rain = 0
KQU1 161559Z 26020G25KT 13/02 A3007 RMK A01 T01270022  RH  049%=      5-min Rain = 0
KQU1 161600Z 26019KT 13/02 A3007 RMK A01 T01280022  RH  049%=      5-min Rain = 0
KQU1 161601Z 26017KT 13/02 A3007 RMK A01 T01290023  RH  049%=      5-min Rain = 0
KQU1 161602Z 26018KT 13/02 A3007 RMK A01 T01300023  RH  048%=      5-min Rain = 0
KQU1 161603Z 26018KT 13/02 A3007 RMK A01 T01310023  RH  048%=      5-min Rain = 0
KQU1 161604Z 25020KT 13/02 A3007 RMK A01 T01310023  RH  048%=      5-min Rain = 0
KQU1 161605Z 25019KT 13/02 A3007 RMK A01 T01310023  RH  048%=      5-min Rain = 0
KQU1 161606Z 26019KT 13/02 A3007 RMK A01 T01320024  RH  048%=      5-min Rain = 0
KQU1 161607Z 26019KT 13/02 A3007 RMK A01 T01330024  RH  048%=      5-min Rain = 0
KQU1 161608Z 26019KT 13/02 A3008 RMK A01 T01340024  RH  047%=      5-min Rain = 0
KQU1 161609Z 26018KT 13/02 A3008 RMK A01 T01340023  RH  047%=      5-min Rain = 0
KQU1 161610Z 25014G19KT 14/03 A3008 RMK A01 T01350025  RH  047%=      5-min Rain = 0
KQU1 161611Z 25013KT 14/03 A3008 RMK A01 T01370027  RH  047%=      5-min Rain = 0
KQU1 161612Z 24015KT 14/03 A3008 RMK A01 T01390027  RH  047%=      5-min Rain = 0
KQU1 161613Z 25014G19KT 14/03 A3008 RMK A01 T01400027  RH  046%=      5-min Rain = 0
KQU1 161614Z 25017KT 14/03 A3008 RMK A01 T01410026  RH  046%=      5-min Rain = 0
KQU1 161615Z 25019G24KT 14/03 A3008 RMK A01 T01400025  RH  046%=      5-min Rain = 0
KQU1 161616Z 26018KT 14/03 A3008 RMK A01 T01400025  RH  046%=      5-min Rain = 0
KQU1 161617Z 25016KT 14/03 A3008 RMK A01 T01390026  RH  046%=      5-min Rain = 0
KQU1 161618Z 25018KT 14/03 A3008 RMK A01 T01400026  RH  046%=      5-min Rain = 0
KQU1 161619Z 25018G23KT 14/03 A3008 RMK A01 T01410026  RH  046%=      5-min Rain = 0
KQU1 161620Z 25019KT 14/03 A3008 RMK A01 T01410026  RH  046%=      5-min Rain = 0
KQU1 161621Z 25019KT 14/03 A3008 RMK A01 T01410026  RH  046%=      5-min Rain = 0
KQU1 161622Z 25019KT 14/03 A3008 RMK A01 T01420026  RH  046%=      5-min Rain = 0
KQU1 161623Z 25018KT 14/03 A3008 RMK A01 T01420027  RH  046%=      5-min Rain = 0
KQU1 161624Z 25016KT 14/03 A3008 RMK A01 T01430027  RH  045%=      5-min Rain = 0
KQU1 161625Z 26016KT 14/03 A3008 RMK A01 T01440027  RH  045%=      5-min Rain = 0
KQU1 161626Z 26017KT 14/03 A3008 RMK A01 T01440027  RH  045%=      5-min Rain = 0
KQU1 161627Z 25017KT 15/03 A3008 RMK A01 T01450027  RH  045%=      5-min Rain = 0
KQU1 161628Z 26018KT 15/03 A3008 RMK A01 T01450026  RH  045%=      5-min Rain = 0
KQU1 161629Z 26016KT 15/03 A3008 RMK A01 T01450027  RH  045%=      5-min Rain = 0
KQU1 161630Z 25016G21KT 15/03 A3008 RMK A01 T01460028  RH  045%=      5-min Rain = 0
KQU1 161631Z 25015KT 15/03 A3008 RMK A01 T01470027  RH  044%=      5-min Rain = 0
KQU1 161632Z 24014KT 15/03 A3008 RMK A01 T01490029  RH  044%=      5-min Rain = 0
KQU1 161633Z 25015KT 15/03 A3008 RMK A01 T01510028  RH  044%=      5-min Rain = 0
KQU1 161634Z 24014KT 15/03 A3009 RMK A01 T01510027  RH  043%=      5-min Rain = 0
KQU1 161635Z 24012KT 15/03 A3009 RMK A01 T01520029  RH  044%=      5-min Rain = 0
KQU1 161636Z 25012KT 15/03 A3009 RMK A01 T01530029  RH  043%=      5-min Rain = 0
KQU1 161637Z 24011KT 15/03 A3009 RMK A01 T01540030  RH  043%=      5-min Rain = 0
KQU1 161638Z 24013KT 16/03 A3009 RMK A01 T01550030  RH  043%=      5-min Rain = 0
KQU1 161639Z 24013KT 16/03 A3009 RMK A01 T01560028  RH  042%=      5-min Rain = 0
KQU1 161640Z 24014KT 16/03 A3009 RMK A01 T01560029  RH  042%=      5-min Rain = 0
KQU1 161641Z 24016KT 16/03 A3009 RMK A01 T01560028  RH  042%=      5-min Rain = 0
KQU1 161642Z 24015KT 16/03 A3009 RMK A01 T01560028  RH  042%=      5-min Rain = 0
KQU1 161643Z 24016KT 16/03 A3009 RMK A01 T01570027  RH  042%=      5-min Rain = 0
KQU1 161644Z 24014KT 16/03 A3009 RMK A01 T01570028  RH  042%=      5-min Rain = 0
KQU1 161645Z 24014KT 16/03 A3009 RMK A01 T01590029  RH  042%=      5-min Rain = 0
KQU1 161646Z 25015KT 16/03 A3009 RMK A01 T01610028  RH  041%=      5-min Rain = 0
KQU1 161647Z 25016KT 16/03 A3009 RMK A01 T01610027  RH  041%=      5-min Rain = 0
KQU1 161648Z 24016KT 16/03 A3009 RMK A01 T01610026  RH  040%=      5-min Rain = 0
KQU1 161649Z 25016KT 16/03 A3009 RMK A01 T01610027  RH  041%=      5-min Rain = 0
KQU1 161650Z 25016KT 16/03 A3009 RMK A01 T01610027  RH  040%=      5-min Rain = 0
KQU1 161651Z 25015KT 16/03 A3009 RMK A01 T01620027  RH  040%=      5-min Rain = 0
KQU1 161652Z 24015G20KT 16/03 A3009 RMK A01 T01630027  RH  040%=      5-min Rain = 0
KQU1 161653Z 24018G23KT 17/03 A3009 RMK A01 T01650026  RH  039%=      5-min Rain = 0
KQU1 161654Z 24020KT 16/02 A3009 RMK A01 T01640024  RH  039%=      5-min Rain = 0
KQU1 161655Z 25017KT 16/03 A3009 RMK A01 T01640025  RH  039%=      5-min Rain = 0
KQU1 161656Z 24017KT 16/03 A3009 RMK A01 T01640025  RH  039%=      5-min Rain = 0
KQU1 161657Z 24015KT 17/03 A3009 RMK A01 T01650025  RH  039%=      5-min Rain = 0
KQU1 161658Z 24019KT 17/02 A3008 RMK A01 T01650023  RH  038%=      5-min Rain = 0
KQU1 161659Z 25018KT 17/02 A3008 RMK A01 T01660022  RH  038%=      5-min Rain = 0
KQU1 161700Z 24017KT 17/03 A3008 RMK A01 T01670025  RH  039%=      5-min Rain = 0
KQU1 161701Z 25018KT 17/02 A3008 RMK A01 T01680023  RH  038%=      5-min Rain = 0
KQU1 161702Z 25016G21KT 17/02 A3008 RMK A01 T01680024  RH  038%=      5-min Rain = 0
KQU1 161703Z 25016KT 17/03 A3008 RMK A01 T01690025  RH  038%=      5-min Rain = 0
KQU1 161704Z 24011KT 17/03 A3008 RMK A01 T01710026  RH  038%=      5-min Rain = 0
KQU1 161705Z 25012KT 17/03 A3008 RMK A01 T01720026  RH  037%=      5-min Rain = 0
KQU1 161706Z 23017G25KT 17/02 A3008 RMK A01 T01740023  RH  036%=      5-min Rain = 0
KQU1 161707Z 24019KT 17/02 A3008 RMK A01 T01740020  RH  036%=      5-min Rain = 0
KQU1 161708Z 25018KT 17/02 A3008 RMK A01 T01740020  RH  036%=      5-min Rain = 0
KQU1 161709Z 25018KT 18/02 A3008 RMK A01 T01750020  RH  035%=      5-min Rain = 0
KQU1 161710Z 24017KT 17/02 A3008 RMK A01 T01740019  RH  035%=      5-min Rain = 0
KQU1 161711Z 24016KT 18/02 A3008 RMK A01 T01750020  RH  035%=      5-min Rain = 0
KQU1 161712Z 25013KT 18/02 A3008 RMK A01 T01750021  RH  035%=      5-min Rain = 0
KQU1 161713Z 25018KT 18/02 A3008 RMK A01 T01770020  RH  035%=      5-min Rain = 0
KQU1 161714Z 24017G22KT 18/02 A3007 RMK A01 T01770017  RH  034%=      5-min Rain = 0
KQU1 161715Z 25021G26KT 18/02 A3007 RMK A01 T01770016  RH  034%=      5-min Rain = 0
KQU1 161716Z 24019KT 18/02 A3007 RMK A01 T01760015  RH  034%=      5-min Rain = 0
KQU1 161717Z 24021KT 18/01 A3007 RMK A01 T01770014  RH  033%=      5-min Rain = 0
KQU1 161718Z 25018G26KT 18/02 A3007 RMK A01 T01770015  RH  034%=      5-min Rain = 0
KQU1 161719Z 25020G25KT 18/01 A3007 RMK A01 T01770014  RH  033%=      5-min Rain = 0
KQU1 161720Z 24019KT 18/01 A3007 RMK A01 T01770014  RH  033%=      5-min Rain = 0
KQU1 161721Z 23017KT 18/01 A3007 RMK A01 T01780014  RH  033%=      5-min Rain = 0
KQU1 161722Z 24017KT 18/02 A3007 RMK A01 T01780015  RH  033%=      5-min Rain = 0
KQU1 161723Z 23016KT 18/02 A3007 RMK A01 T01790016  RH  033%=      5-min Rain = 0
KQU1 161724Z 23019KT 18/02 A3007 RMK A01 T01800015  RH  033%=      5-min Rain = 0
KQU1 161725Z 23019KT 18/01 A3007 RMK A01 T01800014  RH  033%=      5-min Rain = 0
KQU1 161726Z 23021KT 18/01 A3007 RMK A01 T01800012  RH  032%=      5-min Rain = 0
KQU1 161727Z 23020KT 18/01 A3007 RMK A01 T01800013  RH  032%=      5-min Rain = 0
KQU1 161728Z 24019KT 18/01 A3007 RMK A01 T01810014  RH  032%=      5-min Rain = 0
KQU1 161729Z 23016KT 18/01 A3007 RMK A01 T01830014  RH  032%=      5-min Rain = 0
KQU1 161730Z 23018G23KT 18/01 A3007 RMK A01 T01830014  RH  032%=      5-min Rain = 0
KQU1 161731Z 23019KT 18/01 A3006 RMK A01 T01840014  RH  032%=      5-min Rain = 0
KQU1 161732Z 23020G25KT 18/01 A3006 RMK A01 T01840014  RH  032%=      5-min Rain = 0
KQU1 161733Z 22020KT 18/02 A3006 RMK A01 T01840015  RH  032%=      5-min Rain = 0
KQU1 161734Z 24021G26KT 18/02 A3006 RMK A01 T01840016  RH  032%=      5-min Rain = 0
KQU1 161735Z 23016KT 19/02 A3006 RMK A01 T01850017  RH  033%=      5-min Rain = 0
KQU1 161736Z 23016KT 19/02 A3006 RMK A01 T01860018  RH  032%=      5-min Rain = 0
KQU1 161737Z 23015KT 19/02 A3006 RMK A01 T01890019  RH  032%=      5-min Rain = 0
KQU1 161738Z 24016KT 19/02 A3006 RMK A01 T01890018  RH  032%=      5-min Rain = 0
KQU1 161739Z 24014KT 19/02 A3006 RMK A01 T01900019  RH  032%=      5-min Rain = 0
KQU1 161740Z 24014G20KT 19/02 A3006 RMK A01 T01910018  RH  031%=      5-min Rain = 0
KQU1 161741Z 24013G18KT 19/02 A3006 RMK A01 T01930021  RH  032%=      5-min Rain = 0
KQU1 161742Z 23018KT 19/02 A3006 RMK A01 T01940018  RH  031%=      5-min Rain = 0
KQU1 161743Z 23018G27KT 19/02 A3006 RMK A01 T01940018  RH  031%=      5-min Rain = 0
KQU1 161744Z 24018G24KT 20/02 A3006 RMK A01 T01950017  RH  031%=      5-min Rain = 0
KQU1 161745Z 23017G23KT 20/02 A3006 RMK A01 T01950018  RH  031%=      5-min Rain = 0
KQU1 161746Z 24018KT 20/02 A3006 RMK A01 T01950017  RH  030%=      5-min Rain = 0
KQU1 161747Z 24013KT 20/02 A3006 RMK A01 T01960019  RH  031%=      5-min Rain = 0
KQU1 161748Z 24016KT 20/02 A3006 RMK A01 T01970017  RH  030%=      5-min Rain = 0
KQU1 161749Z 25019KT 20/02 A3006 RMK A01 T01960017  RH  030%=      5-min Rain = 0
KQU1 161750Z 24013KT 20/02 A3006 RMK A01 T01970018  RH  030%=      5-min Rain = 0
KQU1 161751Z 23018G24KT 20/02 A3006 RMK A01 T01980018  RH  030%=      5-min Rain = 0
KQU1 161752Z 24021G27KT 20/02 A3005 RMK A01 T01980018  RH  030%=      5-min Rain = 0
KQU1 161753Z 24020KT 20/02 A3006 RMK A01 T01990018  RH  030%=      5-min Rain = 0
KQU1 161754Z 24018KT 20/02 A3005 RMK A01 T02000019  RH  030%=      5-min Rain = 0
KQU1 161755Z 23018G24KT 20/02 A3005 RMK A01 T02000018  RH  030%=      5-min Rain = 0
KQU1 161756Z 23019G24KT 20/02 A3005 RMK A01 T02000018  RH  030%=      5-min Rain = 0
KQU1 161757Z 24018G23KT 20/02 A3005 RMK A01 T02000018  RH  030%=      5-min Rain = 0
KQU1 161758Z 23019KT 20/02 A3005 RMK A01 T02000018  RH  030%=      5-min Rain = 0
KQU1 161759Z 23021KT 20/02 A3005 RMK A01 T02000018  RH  030%=      5-min Rain = 0
KQU1 161800Z 24021KT 20/02 A3005 RMK A01 T02000018  RH  030%=      5-min Rain = 0
KQU1 161801Z 24019G25KT 20/02 A3005 RMK A01 T02000018  RH  030%=      5-min Rain = 0
KQU1 161802Z 24021G26KT 20/02 A3005 RMK A01 T02010018  RH  030%=      5-min Rain = 0
KQU1 161803Z 23015G22KT 20/02 A3005 RMK A01 T02010019  RH  030%=      5-min Rain = 0
KQU1 161804Z 25017G23KT 20/02 A3005 RMK A01 T02020019  RH  030%=      5-min Rain = 0
KQU1 161805Z 24021KT 20/02 A3005 RMK A01 T02020018  RH  029%=      5-min Rain = 0
KQU1 161806Z 24015KT 20/02 A3005 RMK A01 T02040020  RH  030%=      5-min Rain = 0
KQU1 161807Z 25016KT 21/02 A3005 RMK A01 T02060019  RH  029%=      5-min Rain = 0
KQU1 161808Z 24017KT 21/02 A3005 RMK A01 T02050019  RH  029%=      5-min Rain = 0
KQU1 161809Z 25015KT 21/02 A3005 RMK A01 T02070021  RH  029%=      5-min Rain = 0
KQU1 161810Z 26016KT 21/02 A3004 RMK A01 T02090021  RH  029%=      5-min Rain = 0
KQU1 161811Z 25014G19KT 21/02 A3004 RMK A01 T02090020  RH  029%=      5-min Rain = 0
KQU1 161812Z 25013KT 21/02 A3004 RMK A01 T02100022  RH  029%=      5-min Rain = 0
KQU1 161813Z 25018G23KT 21/02 A3004 RMK A01 T02110020  RH  028%=      5-min Rain = 0
KQU1 161814Z 26021G26KT 21/02 A3004 RMK A01 T02090016  RH  028%=      5-min Rain = 0
KQU1 161815Z 26019G24KT 21/02 A3004 RMK A01 T02080019  RH  029%=      5-min Rain = 0
KQU1 161816Z 25015G21KT 21/02 A3004 RMK A01 T02090020  RH  029%=      5-min Rain = 0
KQU1 161817Z 24019G24KT 21/02 A3004 RMK A01 T02090019  RH  028%=      5-min Rain = 0
KQU1 161818Z 24018G24KT 21/02 A3004 RMK A01 T02100018  RH  028%=      5-min Rain = 0
KQU1 161819Z 25021KT 21/02 A3004 RMK A01 T02100018  RH  028%=      5-min Rain = 0
KQU1 161820Z 26019KT 21/02 A3004 RMK A01 T02090016  RH  028%=      5-min Rain = 0
KQU1 161821Z 24017KT 21/02 A3004 RMK A01 T02080017  RH  028%=      5-min Rain = 0
KQU1 161822Z 24019G24KT 21/02 A3004 RMK A01 T02100017  RH  028%=      5-min Rain = 0
KQU1 161823Z 25015KT 21/02 A3004 RMK A01 T02100017  RH  028%=      5-min Rain = 0
KQU1 161824Z 23019KT 21/02 A3004 RMK A01 T02100016  RH  028%=      5-min Rain = 0
KQU1 161825Z 24023KT 21/02 A3003 RMK A01 T02100016  RH  027%=      5-min Rain = 0
KQU1 161826Z 25021KT 21/02 A3003 RMK A01 T02080015  RH  028%=      5-min Rain = 0
KQU1 161827Z 24021G27KT 21/02 A3004 RMK A01 T02070015  RH  028%=      5-min Rain = 0
KQU1 161828Z 25017G22KT 21/02 A3003 RMK A01 T02070016  RH  028%=      5-min Rain = 0
KQU1 161829Z 24024G29KT 21/01 A3003 RMK A01 T02070014  RH  028%=      5-min Rain = 0
KQU1 161830Z 25020G25KT 21/02 A3003 RMK A01 T02080016  RH  028%=      5-min Rain = 0
KQU1 161831Z 25021G26KT 21/02 A3003 RMK A01 T02090016  RH  028%=      5-min Rain = 0
KQU1 161832Z 25023G32KT 21/02 A3003 RMK A01 T02090016  RH  028%=      5-min Rain = 0
KQU1 161833Z 25022G30KT 21/01 A3003 RMK A01 T02080014  RH  028%=      5-min Rain = 0
KQU1 161834Z 26022KT 21/02 A3003 RMK A01 T02080015  RH  028%=      5-min Rain = 0
KQU1 161835Z 26021KT 21/02 A3003 RMK A01 T02070015  RH  028%=      5-min Rain = 0
KQU1 161836Z 26021G26KT 21/02 A3003 RMK A01 T02060015  RH  028%=      5-min Rain = 0
KQU1 161837Z 26024KT 21/02 A3003 RMK A01 T02060015  RH  028%=      5-min Rain = 0
KQU1 161838Z 26024G30KT 21/01 A3003 RMK A01 T02050013  RH  028%=      5-min Rain = 0
KQU1 161839Z 25024KT 21/01 A3002 RMK A01 T02050013  RH  028%=      5-min Rain = 0
KQU1 161840Z 26019G26KT 21/01 A3002 RMK A01 T02060014  RH  028%=      5-min Rain = 0
KQU1 161841Z 25019KT 21/01 A3002 RMK A01 T02080014  RH  028%=      5-min Rain = 0
KQU1 161842Z 24015G20KT 21/02 A3002 RMK A01 T02090015  RH  028%=      5-min Rain = 0
KQU1 161843Z 24017KT 21/02 A3002 RMK A01 T02110015  RH  027%=      5-min Rain = 0
KQU1 161844Z 25018G24KT 21/02 A3002 RMK A01 T02120015  RH  027%=      5-min Rain = 0
KQU1 161845Z 25022KT 21/01 A3002 RMK A01 T02110014  RH  027%=      5-min Rain = 0
KQU1 161846Z 25020KT 21/01 A3002 RMK A01 T02110013  RH  027%=      5-min Rain = 0
KQU1 161847Z 26023KT 21/01 A3002 RMK A01 T02100011  RH  027%=      5-min Rain = 0
KQU1 161848Z 27023KT 21/01 A3001 RMK A01 T02090011  RH  027%=      5-min Rain = 0
KQU1 161849Z 25017KT 21/01 A3001 RMK A01 T02090011  RH  027%=      5-min Rain = 0
KQU1 161850Z 24015G23KT 21/02 A3001 RMK A01 T02120015  RH  027%=      5-min Rain = 0
KQU1 161851Z 24015KT 21/01 A3001 RMK A01 T02130012  RH  026%=      5-min Rain = 0
KQU1 161852Z 25022G27KT 21/01 A3001 RMK A01 T02130012  RH  026%=      5-min Rain = 0
KQU1 161853Z 25020KT 21/01 A3001 RMK A01 T02130012  RH  026%=      5-min Rain = 0
KQU1 161854Z 25023KT 21/01 A3001 RMK A01 T02110011  RH  026%=      5-min Rain = 0
KQU1 161855Z 26025G31KT 21/01 A3001 RMK A01 T02100009  RH  026%=      5-min Rain = 0
KQU1 161856Z 26022G27KT 21/01 A3001 RMK A01 T02090010  RH  027%=      5-min Rain = 0
KQU1 161857Z 25024KT 21/01 A3001 RMK A01 T02090010  RH  027%=      5-min Rain = 0
KQU1 161858Z 25023KT 21/01 A3001 RMK A01 T02080009  RH  027%=      5-min Rain = 0
KQU1 161859Z 25021G26KT 21/01 A3001 RMK A01 T02080010  RH  027%=      5-min Rain = 0
KQU1 161900Z 25022KT 21/01 A30 RMK A01 T02080010  RH  027%=      5-min Rain = 0
KQU1 161901Z 25021KT 21/01 A30 RMK A01 T02080010  RH  027%=      5-min Rain = 0
KQU1 161902Z 25019KT 21/01 A30 RMK A01 T02080012  RH  027%=      5-min Rain = 0
KQU1 161903Z 23021G27KT 21/01 A30 RMK A01 T02100011  RH  027%=      5-min Rain = 0
KQU1 161904Z 24024G30KT 21/01 A30 RMK A01 T02100009  RH  026%=      5-min Rain = 0
KQU1 161905Z 24021KT 21/01 A30 RMK A01 T02110011  RH  026%=      5-min Rain = 0
KQU1 161906Z 24018KT 21/01 A30 RMK A01 T02110011  RH  026%=      5-min Rain = 0
KQU1 161907Z 24022KT 21/01 A30 RMK A01 T02110010  RH  026%=      5-min Rain = 0
KQU1 161908Z 24019KT 21/01 A30 RMK A01 T02120011  RH  026%=      5-min Rain = 0
KQU1 161909Z 25019KT 21/01 A30 RMK A01 T02130012  RH  026%=      5-min Rain = 0
KQU1 161910Z 24021G26KT 21/01 A30 RMK A01 T02140011  RH  026%=      5-min Rain = 0
KQU1 161911Z 25024KT 21/01 A30 RMK A01 T02130008  RH  026%=      5-min Rain = 0
KQU1 161912Z 26021G26KT 21/01 A30 RMK A01 T02120009  RH  026%=      5-min Rain = 0
KQU1 161913Z 26024G30KT 21/01 A30 RMK A01 T02120006  RH  025%=      5-min Rain = 0
KQU1 161914Z 25023G28KT 21/01 A30 RMK A01 T02100007  RH  026%=      5-min Rain = 0
KQU1 161915Z 25019KT 21/01 A30 RMK A01 T02100008  RH  026%=      5-min Rain = 0
KQU1 161916Z 26024G31KT 21/01 A30 RMK A01 T02100008  RH  026%=      5-min Rain = 0
KQU1 161917Z 26024G30KT 21/01 A30 RMK A01 T02090008  RH  026%=      5-min Rain = 0
KQU1 161918Z 25025G30KT 21/01 A2999 RMK A01 T02080008  RH  026%=      5-min Rain = 0
KQU1 161919Z 25022G29KT 21/01 A30 RMK A01 T02080009  RH  027%=      5-min Rain = 0
KQU1 161920Z 25027KT 21/01 A2999 RMK A01 T02080006  RH  026%=      5-min Rain = 0
KQU1 161921Z 25025G30KT 21/01 A2999 RMK A01 T02080006  RH  026%=      5-min Rain = 0
KQU1 161922Z 24026KT 21/01 A2999 RMK A01 T02070005  RH  026%=      5-min Rain = 0
KQU1 161923Z 24026KT 21/01 A2999 RMK A01 T02070005  RH  026%=      5-min Rain = 0
KQU1 161924Z 25024KT 21/01 A2999 RMK A01 T02070006  RH  026%=      5-min Rain = 0
KQU1 161925Z 25024KT 21/00 A2999 RMK A01 T02080004  RH  026%=      5-min Rain = 0
KQU1 161926Z 25023G29KT 21/00 A2999 RMK A01 T02080003  RH  025%=      5-min Rain = 0
KQU1 161927Z 25020KT 21/01 A2999 RMK A01 T02090006  RH  026%=      5-min Rain = 0
KQU1 161928Z 25022KT 21/01 A2999 RMK A01 T02090007  RH  026%=      5-min Rain = 0
KQU1 161929Z 25021G26KT 21/01 A2999 RMK A01 T02080006  RH  026%=      5-min Rain = 0
KQU1 161930Z 26021KT 21/01 A2998 RMK A01 T02080007  RH  026%=      5-min Rain = 0
KQU1 161931Z 25021KT 21/01 A2998 RMK A01 T02080007  RH  026%=      5-min Rain = 0
KQU1 161932Z 23021KT 21/01 A2998 RMK A01 T02110006  RH  026%=      5-min Rain = 0
KQU1 161933Z 24023KT 21/00 A2998 RMK A01 T02120004  RH  025%=      5-min Rain = 0
KQU1 161934Z 23021KT 21/01 A2998 RMK A01 T02120005  RH  025%=      5-min Rain = 0
KQU1 161935Z 24021KT 21/01 A2998 RMK A01 T02130005  RH  025%=      5-min Rain = 0
KQU1 161936Z 25021KT 21/01 A2998 RMK A01 T02140005  RH  025%=      5-min Rain = 0
KQU1 161937Z 25020G26KT 21/00 A2998 RMK A01 T02130004  RH  025%=      5-min Rain = 0
KQU1 161938Z 25020KT 21/01 A2998 RMK A01 T02130005  RH  025%=      5-min Rain = 0
KQU1 161939Z 25022G32KT 21/01 A2998 RMK A01 T02140005  RH  025%=      5-min Rain = 0
KQU1 161940Z 26024G29KT 21/00 A2998 RMK A01 T02120002  RH  025%=      5-min Rain = 0
KQU1 161941Z 27024G30KT 21/00 A2998 RMK A01 T02100004  RH  025%=      5-min Rain = 0
KQU1 161942Z 26024G30KT 21/01 A2997 RMK A01 T02090005  RH  026%=      5-min Rain = 0
KQU1 161943Z 26020KT 21/01 A2997 RMK A01 T02080005  RH  026%=      5-min Rain = 0
KQU1 161944Z 25016KT 21/01 A2998 RMK A01 T02090008  RH  026%=      5-min Rain = 0
KQU1 161945Z 25019KT 21/01 A2998 RMK A01 T02100007  RH  026%=      5-min Rain = 0
KQU1 161946Z 26020G25KT 21/01 A2997 RMK A01 T02120009  RH  026%=      5-min Rain = 0
KQU1 161947Z 24021G27KT 21/01 A2997 RMK A01 T02120008  RH  026%=      5-min Rain = 0
KQU1 161948Z 25018KT 21/01 A2997 RMK A01 T02110008  RH  026%=      5-min Rain = 0
KQU1 161949Z 24022KT 21/01 A2997 RMK A01 T02100006  RH  026%=      5-min Rain = 0
KQU1 161950Z 25020KT 21/01 A2997 RMK A01 T02080005  RH  026%=      5-min Rain = 0
KQU1 161951Z 25021G28KT 21/01 A2997 RMK A01 T02070005  RH  026%=      5-min Rain = 0
KQU1 161952Z 24022G30KT 21/01 A2997 RMK A01 T02070005  RH  026%=      5-min Rain = 0
KQU1 161953Z 25023KT 21/00 A2997 RMK A01 T02060004  RH  026%=      5-min Rain = 0
KQU1 161954Z 25022G29KT 21/00 A2997 RMK A01 T02050003  RH  026%=      5-min Rain = 0
KQU1 161955Z 26020KT 21/01 A2997 RMK A01 T02050005  RH  026%=      5-min Rain = 0
KQU1 161956Z 25019G24KT 20/01 A2997 RMK A01 T02040005  RH  026%=      5-min Rain = 0
KQU1 161957Z 26021KT 20/01 A2997 RMK A01 T02040005  RH  026%=      5-min Rain = 0
KQU1 161958Z 26024KT 20/00 A2997 RMK A01 T02040004  RH  026%=      5-min Rain = 0
KQU1 161959Z 25021KT 20/01 A2997 RMK A01 T02030005  RH  027%=      5-min Rain = 0
KQU1 162000Z 25018KT 20/01 A2997 RMK A01 T02030005  RH  027%=      5-min Rain = 0
KQU1 162001Z 26019KT 20/01 A2997 RMK A01 T02030006  RH  027%=      5-min Rain = 0
KQU1 162002Z 25023KT 20/00 A2997 RMK A01 T02040004  RH  026%=      5-min Rain = 0
KQU1 162003Z 24017G22KT 20/01 A2997 RMK A01 T02040005  RH  026%=      5-min Rain = 0
KQU1 162004Z 24021G26KT 21/01 A2996 RMK A01 T02060006  RH  026%=      5-min Rain = 0
KQU1 162005Z 25019KT 21/01 A2996 RMK A01 T02060005  RH  026%=      5-min Rain = 0
KQU1 162006Z 26019KT 21/01 A2996 RMK A01 T02060005  RH  026%=      5-min Rain = 0
KQU1 162007Z 26022KT 21/01 A2996 RMK A01 T02050006  RH  026%=      5-min Rain = 0
KQU1 162008Z 24018KT 20/01 A2996 RMK A01 T02040005  RH  026%=      5-min Rain = 0
KQU1 162009Z 25025KT 20/01 A2996 RMK A01 T02040005  RH  026%=      5-min Rain = 0
KQU1 162010Z 24020KT 20/01 A2996 RMK A01 T02030005  RH  027%=      5-min Rain = 0
KQU1 162011Z 24020G25KT 20/01 A2996 RMK A01 T02030005  RH  027%=      5-min Rain = 0
KQU1 162012Z 25018G24KT 20/01 A2996 RMK A01 T02020005  RH  027%=      5-min Rain = 0
KQU1 162013Z 24016KT 20/01 A2996 RMK A01 T02020006  RH  027%=      5-min Rain = 0
KQU1 162014Z 24019KT 20/01 A2996 RMK A01 T02030006  RH  027%=      5-min Rain = 0
KQU1 162015Z 25019G25KT 20/01 A2996 RMK A01 T02030006  RH  027%=      5-min Rain = 0
KQU1 162016Z 24019KT 20/01 A2996 RMK A01 T02040007  RH  027%=      5-min Rain = 0
KQU1 162017Z 24020KT 20/01 A2996 RMK A01 T02040006  RH  027%=      5-min Rain = 0
KQU1 162018Z 25018KT 20/01 A2996 RMK A01 T02030007  RH  027%=      5-min Rain = 0
KQU1 162019Z 25019KT 20/01 A2996 RMK A01 T02030007  RH  027%=      5-min Rain = 0
KQU1 162020Z 25016KT 20/01 A2996 RMK A01 T02030008  RH  027%=      5-min Rain = 0
KQU1 162021Z 25021G29KT 20/01 A2995 RMK A01 T02030007  RH  027%=      5-min Rain = 0
KQU1 162022Z 24021KT 20/01 A2995 RMK A01 T02030006  RH  027%=      5-min Rain = 0
KQU1 162023Z 25019KT 20/01 A2996 RMK A01 T02030007  RH  027%=      5-min Rain = 0
KQU1 162024Z 24020G26KT 20/01 A2995 RMK A01 T02030006  RH  027%=      5-min Rain = 0
KQU1 162025Z 24023KT 20/01 A2995 RMK A01 T02030005  RH  027%=      5-min Rain = 0
KQU1 162026Z 24021G26KT 20/01 A2995 RMK A01 T02030005  RH  027%=      5-min Rain = 0
KQU1 162027Z 25024G32KT 20/00 A2995 RMK A01 T02030004  RH  027%=      5-min Rain = 0
KQU1 162028Z 25023G28KT 20/01 A2995 RMK A01 T02030005  RH  027%=      5-min Rain = 0
KQU1 162029Z 24020KT 20/01 A2995 RMK A01 T02030005  RH  027%=      5-min Rain = 0
KQU1 162030Z 25023G28KT 20/00 A2995 RMK A01 T02030004  RH  026%=      5-min Rain = 0
KQU1 162031Z 25021G27KT 20/00 A2995 RMK A01 T02030004  RH  026%=      5-min Rain = 0
KQU1 162032Z 25024G29KT 20/00 A2995 RMK A01 T02030003  RH  026%=      5-min Rain = 0
KQU1 162033Z 25023G29KT 20/00 A2995 RMK A01 T02020004  RH  026%=      5-min Rain = 0
KQU1 162034Z 25024KT 20/00 A2995 RMK A01 T02020003  RH  027%=      5-min Rain = 0
KQU1 162035Z 25023KT 20/00 A2995 RMK A01 T02010004  RH  027%=      5-min Rain = 0
KQU1 162036Z 25024G30KT 20/00 A2995 RMK A01 T02010004  RH  027%=      5-min Rain = 0
KQU1 162037Z 25025G31KT 20/00 A2995 RMK A01 T02010003  RH  026%=      5-min Rain = 0
KQU1 162038Z 26021KT 20/00 A2995 RMK A01 T02010003  RH  027%=      5-min Rain = 0
KQU1 162039Z 26022G27KT 20/00 A2995 RMK A01 T02010002  RH  026%=      5-min Rain = 0
KQU1 162040Z 25025G30KT 20/00 A2995 RMK A01 T02020003  RH  026%=      5-min Rain = 0
KQU1 162041Z 25019KT 20/00 A2995 RMK A01 T02020004  RH  027%=      5-min Rain = 0
KQU1 162042Z 25020G27KT 20/00 A2995 RMK A01 T02030003  RH  026%=      5-min Rain = 0
KQU1 162043Z 25019G24KT 20/00 A2995 RMK A01 T02030004  RH  026%=      5-min Rain = 0
KQU1 162044Z 25018G25KT 20/01 A2995 RMK A01 T02030005  RH  027%=      5-min Rain = 0
KQU1 162045Z 26022KT 20/00 A2995 RMK A01 T02030004  RH  026%=      5-min Rain = 0
KQU1 162046Z 26018G23KT 20/00 A2995 RMK A01 T02020004  RH  027%=      5-min Rain = 0
KQU1 162047Z 25021KT 20/00 A2995 RMK A01 T02030004  RH  027%=      5-min Rain = 0
KQU1 162048Z 25022KT 20/00 A2995 RMK A01 T02030004  RH  026%=      5-min Rain = 0
KQU1 162049Z 26020KT 20/00 A2995 RMK A01 T02030003  RH  026%=      5-min Rain = 0
KQU1 162050Z 26023KT 20/00 A2995 RMK A01 T02020003  RH  026%=      5-min Rain = 0
KQU1 162051Z 26023G28KT 20/00 A2995 RMK A01 T02010002  RH  026%=      5-min Rain = 0
KQU1 162052Z 26020KT 20/00 A2995 RMK A01 T02010003  RH  027%=      5-min Rain = 0
KQU1 162053Z 24019KT 20/00 A2995 RMK A01 T02010003  RH  027%=      5-min Rain = 0
KQU1 162054Z 25016KT 20/00 A2995 RMK A01 T02020004  RH  027%=      5-min Rain = 0
KQU1 162055Z 25024KT 20/00 A2995 RMK A01 T02020001  RH  026%=      5-min Rain = 0
KQU1 162056Z 24019G24KT 20/00 A2995 RMK A01 T02020001  RH  026%=      5-min Rain = 0
KQU1 162057Z 25018G24KT 20/00 A2995 RMK A01 T02030002  RH  026%=      5-min Rain = 0
KQU1 162058Z 25021KT 20/00 A2995 RMK A01 T02030001  RH  026%=      5-min Rain = 0
KQU1 162059Z 24021KT 20/00 A2995 RMK A01 T02020002  RH  026%=      5-min Rain = 0
KQU1 162100Z 24021KT 20/00 A2995 RMK A01 T02020002  RH  026%=      5-min Rain = 0
KQU1 162101Z 24020G25KT 20/00 A2995 RMK A01 T02020002  RH  026%=      5-min Rain = 0
KQU1 162102Z 24020KT 20/00 A2995 RMK A01 T02020001  RH  026%=      5-min Rain = 0
KQU1 162103Z 24022KT 20/00 A2995 RMK A01 T02020002  RH  026%=      5-min Rain = 0
KQU1 162104Z 24023G29KT 20/00 A2995 RMK A01 T02020003  RH  026%=      5-min Rain = 0
KQU1 162105Z 24019KT 20/00 A2995 RMK A01 T02020003  RH  026%=      5-min Rain = 0
KQU1 162106Z 24020G25KT 20/00 A2995 RMK A01 T02020004  RH  027%=      5-min Rain = 0
KQU1 162107Z 24021KT 20/00 A2995 RMK A01 T02020004  RH  027%=      5-min Rain = 0
KQU1 162108Z 24019G25KT 20/01 A2995 RMK A01 T02020005  RH  027%=      5-min Rain = 0
KQU1 162109Z 24022KT 20/01 A2995 RMK A01 T02020005  RH  027%=      5-min Rain = 0
KQU1 162110Z 24022KT 20/01 A2995 RMK A01 T02020005  RH  027%=      5-min Rain = 0
KQU1 162111Z 25020G25KT 20/01 A2995 RMK A01 T02020005  RH  027%=      5-min Rain = 0
KQU1 162112Z 24022KT 20/01 A2995 RMK A01 T02030006  RH  027%=      5-min Rain = 0
KQU1 162113Z 24021G26KT 20/01 A2995 RMK A01 T02030006  RH  027%=      5-min Rain = 0
KQU1 162114Z 24019KT 21/01 A2995 RMK A01 T02050007  RH  027%=      5-min Rain = 0
KQU1 162115Z 24016KT 21/01 A2995 RMK A01 T02070008  RH  027%=      5-min Rain = 0
KQU1 162116Z 25015KT 21/01 A2995 RMK A01 T02090009  RH  026%=      5-min Rain = 0
KQU1 162117Z 24014KT 21/01 A2995 RMK A01 T02110008  RH  026%=      5-min Rain = 0
KQU1 162118Z 24015KT 21/01 A2995 RMK A01 T02130009  RH  026%=      5-min Rain = 0
KQU1 162119Z 23018G23KT 22/01 A2995 RMK A01 T02150008  RH  025%=      5-min Rain = 0
KQU1 162120Z 24014KT 21/01 A2995 RMK A01 T02140007  RH  025%=      5-min Rain = 0
KQU1 162121Z 23015KT 22/01 A2995 RMK A01 T02150008  RH  025%=      5-min Rain = 0
KQU1 162122Z 23017KT 21/01 A2995 RMK A01 T02140006  RH  025%=      5-min Rain = 0
KQU1 162123Z 24019KT 21/01 A2995 RMK A01 T02140005  RH  025%=      5-min Rain = 0
KQU1 162124Z 23017KT 21/00 A2994 RMK A01 T02130004  RH  025%=      5-min Rain = 0
KQU1 162125Z 23017KT 21/01 A2994 RMK A01 T02130005  RH  025%=      5-min Rain = 0
KQU1 162126Z 23017KT 21/00 A2995 RMK A01 T02120004  RH  025%=      5-min Rain = 0
KQU1 162127Z 24015KT 21/01 A2994 RMK A01 T02120005  RH  025%=      5-min Rain = 0
KQU1 162128Z 25014KT 21/00 A2994 RMK A01 T02130003  RH  025%=      5-min Rain = 0
KQU1 162129Z 25011G16KT 22/01 A2994 RMK A01 T02150005  RH  025%=      5-min Rain = 0
KQU1 162130Z 25014KT 22/00 A2994 RMK A01 T02160004  RH  024%=      5-min Rain = 0
KQU1 162131Z 26016G21KT 22/00 A2994 RMK A01 T02170002  RH  024%=      5-min Rain = 0
KQU1 162132Z 25024G29KT 22/M00 A2994 RMK A01 T02181002  RH  023%=      5-min Rain = 0
KQU1 162133Z 24024KT 22/M01 A2994 RMK A01 T02161006  RH  023%=      5-min Rain = 0
KQU1 162134Z 24022KT 22/M01 A2994 RMK A01 T02151006  RH  023%=      5-min Rain = 0
KQU1 162135Z 24020G25KT 22/M01 A2994 RMK A01 T02151005  RH  023%=      5-min Rain = 0
KQU1 162136Z 25019G24KT 22/M00 A2994 RMK A01 T02151004  RH  023%=      5-min Rain = 0
KQU1 162137Z 25016KT 22/M00 A2994 RMK A01 T02161004  RH  023%=      5-min Rain = 0
KQU1 162138Z 25018G24KT 22/M00 A2994 RMK A01 T02171003  RH  023%=      5-min Rain = 0
KQU1 162139Z 25024G29KT 22/M00 A2994 RMK A01 T02161004  RH  023%=      5-min Rain = 0
KQU1 162140Z 25024KT 21/M00 A2994 RMK A01 T02141004  RH  023%=      5-min Rain = 0
KQU1 162141Z 24023G28KT 21/M00 A2994 RMK A01 T02141003  RH  023%=      5-min Rain = 0
KQU1 162142Z 24023KT 21/M00 A2994 RMK A01 T02141004  RH  023%=      5-min Rain = 0
KQU1 162143Z 25022G29KT 21/M01 A2994 RMK A01 T02141005  RH  023%=      5-min Rain = 0
KQU1 162144Z 25023KT 21/M01 A2994 RMK A01 T02141005  RH  023%=      5-min Rain = 0
KQU1 162145Z 25021KT 21/M01 A2994 RMK A01 T02141006  RH  023%=      5-min Rain = 0
KQU1 162146Z 24024G29KT 21/M01 A2994 RMK A01 T02141006  RH  023%=      5-min Rain = 0
KQU1 162147Z 24027G32KT 21/M01 A2994 RMK A01 T02141009  RH  022%=      5-min Rain = 0
KQU1 162148Z 24026G31KT 21/M01 A2994 RMK A01 T02141008  RH  023%=      5-min Rain = 0
KQU1 162149Z 24024KT 21/M01 A2994 RMK A01 T02141010  RH  022%=      5-min Rain = 0
KQU1 162150Z 24023KT 21/M01 A2994 RMK A01 T02131009  RH  023%=      5-min Rain = 0
KQU1 162151Z 25021KT 21/M01 A2994 RMK A01 T02141007  RH  023%=      5-min Rain = 0
KQU1 162152Z 26021G26KT 21/M01 A2994 RMK A01 T02141006  RH  023%=      5-min Rain = 0
KQU1 162153Z 24022G30KT 22/M01 A2994 RMK A01 T02151005  RH  023%=      5-min Rain = 0
KQU1 162154Z 24023G29KT 21/M01 A2994 RMK A01 T02141007  RH  023%=      5-min Rain = 0
KQU1 162155Z 23023KT 21/M01 A2994 RMK A01 T02141005  RH  023%=      5-min Rain = 0
KQU1 162156Z 23020KT 21/M00 A2994 RMK A01 T02141004  RH  023%=      5-min Rain = 0
KQU1 162157Z 23021KT 22/M00 A2994 RMK A01 T02151003  RH  023%=      5-min Rain = 0
KQU1 162158Z 23022G27KT 22/M00 A2994 RMK A01 T02151003  RH  023%=      5-min Rain = 0
KQU1 162159Z 23023KT 21/M00 A2994 RMK A01 T02141003  RH  023%=      5-min Rain = 0
KQU1 162200Z 23026KT 21/M00 A2994 RMK A01 T02141004  RH  023%=      5-min Rain = 0
KQU1 162201Z 24024KT 21/M01 A2994 RMK A01 T02141007  RH  023%=      5-min Rain = 0
KQU1 162202Z 25021KT 21/M01 A2994 RMK A01 T02141008  RH  023%=      5-min Rain = 0
KQU1 162203Z 26021G28KT 21/M01 A2994 RMK A01 T02141008  RH  023%=      5-min Rain = 0
KQU1 162204Z 25021G29KT 21/M01 A2994 RMK A01 T02141009  RH  023%=      5-min Rain = 0
KQU1 162205Z 24021G26KT 21/M01 A2994 RMK A01 T02141009  RH  022%=      5-min Rain = 0
KQU1 162206Z 24021G26KT 21/M01 A2994 RMK A01 T02141009  RH  022%=      5-min Rain = 0
KQU1 162207Z 25026G32KT 21/M01 A2994 RMK A01 T02141011  RH  022%=      5-min Rain = 0
KQU1 162208Z 26026G32KT 21/M01 A2994 RMK A01 T02131012  RH  022%=      5-min Rain = 0
KQU1 162209Z 26023KT 21/M01 A2994 RMK A01 T02131010  RH  022%=      5-min Rain = 0
KQU1 162210Z 25021KT 21/M01 A2994 RMK A01 T02131010  RH  022%=      5-min Rain = 0
KQU1 162211Z 24024KT 21/M01 A2994 RMK A01 T02131011  RH  022%=      5-min Rain = 0
KQU1 162212Z 24022KT 21/M01 A2994 RMK A01 T02131010  RH  022%=      5-min Rain = 0
KQU1 162213Z 24022KT 21/M01 A2994 RMK A01 T02131011  RH  022%=      5-min Rain = 0
KQU1 162214Z 24024G29KT 21/M01 A2994 RMK A01 T02131014  RH  022%=      5-min Rain = 0
KQU1 162215Z 25025G30KT 21/M02 A2994 RMK A01 T02131015  RH  022%=      5-min Rain = 0
KQU1 162216Z 26021G27KT 21/M01 A2994 RMK A01 T02131014  RH  022%=      5-min Rain = 0
KQU1 162217Z 25027KT 21/M02 A2994 RMK A01 T02121016  RH  022%=      5-min Rain = 0
KQU1 162218Z 26027KT 21/M02 A2994 RMK A01 T02111015  RH  022%=      5-min Rain = 0
KQU1 162219Z 26026KT 21/M01 A2994 RMK A01 T02111014  RH  022%=      5-min Rain = 0
KQU1 162220Z 25020G25KT 21/M01 A2994 RMK A01 T02111013  RH  022%=      5-min Rain = 0
KQU1 162221Z 24018G24KT 21/M01 A2994 RMK A01 T02111012  RH  022%=      5-min Rain = 0
KQU1 162222Z 25025KT 21/M01 A2994 RMK A01 T02121013  RH  022%=      5-min Rain = 0
KQU1 162223Z 25019KT 21/M01 A2994 RMK A01 T02111013  RH  022%=      5-min Rain = 0
KQU1 162224Z 26019KT 21/M01 A2994 RMK A01 T02121013  RH  022%=      5-min Rain = 0
KQU1 162225Z 25017G22KT 21/M01 A2994 RMK A01 T02121012  RH  022%=      5-min Rain = 0
KQU1 162226Z 25016KT 21/M01 A2994 RMK A01 T02121012  RH  022%=      5-min Rain = 0
KQU1 162227Z 25019KT 21/M01 A2994 RMK A01 T02121014  RH  022%=      5-min Rain = 0
KQU1 162228Z 26020G25KT 21/M01 A2994 RMK A01 T02111013  RH  022%=      5-min Rain = 0
KQU1 162229Z 25022KT 21/M01 A2994 RMK A01 T02111014  RH  022%=      5-min Rain = 0
KQU1 162230Z 25023KT 21/M01 A2994 RMK A01 T02111014  RH  022%=      5-min Rain = 0
KQU1 162231Z 24023KT 21/M02 A2994 RMK A01 T02101015  RH  022%=      5-min Rain = 0
KQU1 162232Z 25020KT 21/M01 A2994 RMK A01 T02101014  RH  022%=      5-min Rain = 0
KQU1 162233Z 25018G24KT 21/M01 A2994 RMK A01 T02101013  RH  022%=      5-min Rain = 0
KQU1 162234Z 26019G24KT 21/M01 A2994 RMK A01 T02101014  RH  022%=      5-min Rain = 0
KQU1 162235Z 25020KT 21/M02 A2994 RMK A01 T02101015  RH  022%=      5-min Rain = 0
KQU1 162236Z 24022KT 21/M02 A2994 RMK A01 T02101015  RH  022%=      5-min Rain = 0
KQU1 162237Z 24025KT 21/M02 A2994 RMK A01 T02091016  RH  022%=      5-min Rain = 0
KQU1 162238Z 24025KT 21/M02 A2993 RMK A01 T02091016  RH  022%=      5-min Rain = 0
KQU1 162239Z 25020KT 21/M02 A2994 RMK A01 T02081015  RH  022%=      5-min Rain = 0
KQU1 162240Z 25019KT 21/M02 A2994 RMK A01 T02091015  RH  022%=      5-min Rain = 0
KQU1 162241Z 24021G28KT 21/M02 A2994 RMK A01 T02081015  RH  022%=      5-min Rain = 0
KQU1 162242Z 24025KT 21/M02 A2993 RMK A01 T02081015  RH  022%=      5-min Rain = 0
KQU1 162243Z 23021KT 21/M02 A2994 RMK A01 T02081015  RH  022%=      5-min Rain = 0
KQU1 162244Z 24022G27KT 21/M01 A2993 RMK A01 T02081014  RH  022%=      5-min Rain = 0
KQU1 162245Z 24021KT 21/M01 A2994 RMK A01 T02081014  RH  023%=      5-min Rain = 0
KQU1 162246Z 25020KT 21/M01 A2994 RMK A01 T02081013  RH  023%=      5-min Rain = 0
KQU1 162247Z 25018KT 21/M01 A2994 RMK A01 T02071012  RH  023%=      5-min Rain = 0
KQU1 162248Z 25018G24KT 21/M01 A2994 RMK A01 T02071012  RH  023%=      5-min Rain = 0
KQU1 162249Z 25021KT 21/M01 A2994 RMK A01 T02071012  RH  023%=      5-min Rain = 0
KQU1 162250Z 25023G29KT 21/M01 A2994 RMK A01 T02071013  RH  023%=      5-min Rain = 0
KQU1 162251Z 25024KT 21/M01 A2994 RMK A01 T02071013  RH  023%=      5-min Rain = 0
KQU1 162252Z 25018G23KT 21/M01 A2994 RMK A01 T02071012  RH  023%=      5-min Rain = 0
KQU1 162253Z 26022G28KT 21/M01 A2994 RMK A01 T02061012  RH  023%=      5-min Rain = 0
KQU1 162254Z 25020G25KT 21/M01 A2994 RMK A01 T02061012  RH  023%=      5-min Rain = 0
KQU1 162255Z 25019KT 21/M01 A2994 RMK A01 T02061011  RH  023%=      5-min Rain = 0
KQU1 162256Z 25018KT 21/M01 A2994 RMK A01 T02061011  RH  023%=      5-min Rain = 0
KQU1 162257Z 25018KT 21/M01 A2993 RMK A01 T02051011  RH  023%=      5-min Rain = 0
KQU1 162258Z 24018KT 21/M01 A2993 RMK A01 T02051011  RH  023%=      5-min Rain = 0
KQU1 162259Z 24015KT 21/M01 A2993 RMK A01 T02051011  RH  023%=      5-min Rain = 0
KQU1 162300Z 25019G25KT 21/M01 A2993 RMK A01 T02051010  RH  023%=      5-min Rain = 0
KQU1 162301Z 24021KT 21/M01 A2993 RMK A01 T02051011  RH  023%=      5-min Rain = 0
KQU1 162302Z 24018KT 21/M01 A2994 RMK A01 T02051011  RH  023%=      5-min Rain = 0
KQU1 162303Z 24017G23KT 20/M01 A2994 RMK A01 T02041010  RH  024%=      5-min Rain = 0
KQU1 162304Z 25019G24KT 20/M01 A2994 RMK A01 T02041011  RH  024%=      5-min Rain = 0
KQU1 162305Z 24022KT 20/M01 A2994 RMK A01 T02041011  RH  024%=      5-min Rain = 0
KQU1 162306Z 25018KT 20/M01 A2994 RMK A01 T02041010  RH  024%=      5-min Rain = 0
KQU1 162307Z 24019KT 20/M01 A2994 RMK A01 T02031010  RH  024%=      5-min Rain = 0
KQU1 162308Z 25017KT 20/M01 A2994 RMK A01 T02031010  RH  024%=      5-min Rain = 0
KQU1 162309Z 24019KT 20/M01 A2994 RMK A01 T02031009  RH  024%=      5-min Rain = 0
KQU1 162310Z 25016KT 20/M01 A2994 RMK A01 T02031009  RH  024%=      5-min Rain = 0
KQU1 162311Z 25014KT 20/M01 A2994 RMK A01 T02021009  RH  024%=      5-min Rain = 0
KQU1 162312Z 24017KT 20/M01 A2994 RMK A01 T02021008  RH  024%=      5-min Rain = 0
KQU1 162313Z 24015KT 20/M01 A2994 RMK A01 T02021008  RH  024%=      5-min Rain = 0
KQU1 162314Z 25017KT 20/M01 A2994 RMK A01 T02021008  RH  025%=      5-min Rain = 0
KQU1 162315Z 24017KT 20/M01 A2994 RMK A01 T02011007  RH  025%=      5-min Rain = 0
KQU1 162316Z 24020KT 20/M01 A2994 RMK A01 T02011007  RH  025%=      5-min Rain = 0
KQU1 162317Z 25018KT 20/M01 A2994 RMK A01 T02011006  RH  025%=      5-min Rain = 0
KQU1 162318Z 24014KT 20/M01 A2994 RMK A01 T02001006  RH  025%=      5-min Rain = 0
KQU1 162319Z 24017KT 20/M01 A2994 RMK A01 T02001006  RH  025%=      5-min Rain = 0
KQU1 162320Z 24015KT 20/M01 A2994 RMK A01 T02001005  RH  025%=      5-min Rain = 0
KQU1 162321Z 24015KT 20/M01 A2994 RMK A01 T01991005  RH  025%=      5-min Rain = 0
KQU1 162322Z 24017KT 20/M01 A2994 RMK A01 T01981005  RH  026%=      5-min Rain = 0
KQU1 162323Z 25015KT 20/M00 A2994 RMK A01 T01981004  RH  026%=      5-min Rain = 0
KQU1 162324Z 24016KT 20/M00 A2994 RMK A01 T01981004  RH  026%=      5-min Rain = 0
KQU1 162325Z 24015KT 20/M00 A2994 RMK A01 T01981004  RH  026%=      5-min Rain = 0
KQU1 162326Z 25016KT 20/M00 A2994 RMK A01 T01971004  RH  026%=      5-min Rain = 0
KQU1 162327Z 24015KT 20/M00 A2994 RMK A01 T01981004  RH  026%=      5-min Rain = 0
KQU1 162328Z 24014KT 20/M00 A2994 RMK A01 T01971004  RH  026%=      5-min Rain = 0
KQU1 162329Z 24014KT 20/M00 A2994 RMK A01 T01961003  RH  026%=      5-min Rain = 0
KQU1 162330Z 24013KT 20/M00 A2994 RMK A01 T01961003  RH  026%=      5-min Rain = 0
KQU1 162331Z 24013KT 20/M00 A2994 RMK A01 T01951003  RH  026%=      5-min Rain = 0
KQU1 162332Z 24015KT 20/M00 A2994 RMK A01 T01951003  RH  026%=      5-min Rain = 0
KQU1 162333Z 24016KT 20/M00 A2994 RMK A01 T01951003  RH  026%=      5-min Rain = 0
KQU1 162334Z 24020KT 20/M00 A2994 RMK A01 T01951003  RH  026%=      5-min Rain = 0
KQU1 162335Z 24019KT 20/M00 A2994 RMK A01 T01951003  RH  026%=      5-min Rain = 0
KQU1 162336Z 24014KT 20/M00 A2994 RMK A01 T01951003  RH  026%=      5-min Rain = 0
KQU1 162337Z 23016KT 19/M00 A2994 RMK A01 T01941003  RH  027%=      5-min Rain = 0
KQU1 162338Z 24012KT 19/M00 A2994 RMK A01 T01941003  RH  027%=      5-min Rain = 0
KQU1 162339Z 24014KT 19/M00 A2994 RMK A01 T01931003  RH  027%=      5-min Rain = 0
KQU1 162340Z 24017KT 19/M00 A2994 RMK A01 T01921003  RH  027%=      5-min Rain = 0
KQU1 162341Z 24016KT 19/M00 A2994 RMK A01 T01911003  RH  027%=      5-min Rain = 0
KQU1 162342Z 24018KT 19/M00 A2994 RMK A01 T01911003  RH  027%=      5-min Rain = 0
KQU1 162343Z 24014KT 19/M00 A2994 RMK A01 T01911003  RH  027%=      5-min Rain = 0
KQU1 162344Z 23015KT 19/M00 A2994 RMK A01 T01891003  RH  027%=      5-min Rain = 0
KQU1 162345Z 23015KT 19/M00 A2994 RMK A01 T01891003  RH  027%=      5-min Rain = 0
KQU1 162346Z 23015KT 19/M00 A2994 RMK A01 T01891003  RH  027%=      5-min Rain = 0
KQU1 162347Z 23013KT 19/M00 A2994 RMK A01 T01881003  RH  028%=      5-min Rain = 0
KQU1 162348Z 23015KT 19/M00 A2994 RMK A01 T01871003  RH  028%=      5-min Rain = 0
KQU1 162349Z 24014KT 19/M00 A2994 RMK A01 T01861003  RH  028%=      5-min Rain = 0
KQU1 162350Z 23013KT 19/M00 A2994 RMK A01 T01861003  RH  028%=      5-min Rain = 0
KQU1 162351Z 23013KT 18/M00 A2994 RMK A01 T01841003  RH  028%=      5-min Rain = 0
KQU1 162352Z 23014KT 18/M00 A2994 RMK A01 T01831003  RH  028%=      5-min Rain = 0
KQU1 162353Z 23013KT 18/M00 A2994 RMK A01 T01831003  RH  029%=      5-min Rain = 0
KQU1 162354Z 23012KT 18/M00 A2994 RMK A01 T01821003  RH  029%=      5-min Rain = 0
KQU1 162355Z 23013KT 18/M00 A2994 RMK A01 T01811003  RH  029%=      5-min Rain = 0
KQU1 162356Z 24015KT 18/M00 A2994 RMK A01 T01811003  RH  029%=      5-min Rain = 0
KQU1 162357Z 23013KT 18/M00 A2994 RMK A01 T01821003  RH  029%=      5-min Rain = 0
KQU1 162358Z 23014KT 18/M00 A2994 RMK A01 T01811003  RH  029%=      5-min Rain = 0
KQU1 162359Z 23014KT 18/M00 A2994 RMK A01 T01811004  RH  029%=      5-min Rain = 0
KQU1 170000Z 24014KT 18/M00 A2994 RMK A01 T01811004  RH  029%=      5-min Rain = 0
KQU1 170001Z 24015KT 18/M00 A2994 RMK A01 T01811004  RH  029%=      5-min Rain = 0
KQU1 170002Z 24015KT 18/M01 A2994 RMK A01 T01811005  RH  028%=      5-min Rain = 0
KQU1 170003Z 24015KT 18/M01 A2994 RMK A01 T01811005  RH  028%=      5-min Rain = 0
KQU1 170004Z 24013KT 18/M01 A2994 RMK A01 T01811005  RH  028%=      5-min Rain = 0
KQU1 170005Z 24013KT 18/M01 A2994 RMK A01 T01801005  RH  029%=      5-min Rain = 0
KQU1 170006Z 24012KT 18/M01 A2994 RMK A01 T01791006  RH  029%=      5-min Rain = 0
KQU1 170007Z 24013KT 18/M01 A2994 RMK A01 T01781006  RH  029%=      5-min Rain = 0
KQU1 170008Z 24012KT 18/M01 A2994 RMK A01 T01771005  RH  029%=      5-min Rain = 0
KQU1 170009Z 24013KT 18/M01 A2994 RMK A01 T01761005  RH  029%=      5-min Rain = 0
KQU1 170010Z 24012KT 18/M01 A2994 RMK A01 T01761005  RH  029%=      5-min Rain = 0
KQU1 170011Z 23014KT 18/M01 A2994 RMK A01 T01751006  RH  029%=      5-min Rain = 0
KQU1 170012Z 24014KT 18/M01 A2994 RMK A01 T01761005  RH  029%=      5-min Rain = 0
KQU1 170013Z 23014KT 18/M01 A2994 RMK A01 T01771005  RH  029%=      5-min Rain = 0
KQU1 170014Z 24015KT 18/M01 A2994 RMK A01 T01761005  RH  029%=      5-min Rain = 0
KQU1 170015Z 24015KT 18/M01 A2994 RMK A01 T01761005  RH  029%=      5-min Rain = 0
KQU1 170016Z 24014KT 18/M01 A2994 RMK A01 T01771005  RH  029%=      5-min Rain = 0
KQU1 170017Z 23014KT 18/M01 A2994 RMK A01 T01771005  RH  029%=      5-min Rain = 0
KQU1 170018Z 23016KT 18/M01 A2994 RMK A01 T01761005  RH  029%=      5-min Rain = 0
KQU1 170019Z 23015KT 18/M01 A2994 RMK A01 T01761005  RH  029%=      5-min Rain = 0
KQU1 170020Z 23014KT 18/M01 A2994 RMK A01 T01761005  RH  029%=      5-min Rain = 0
KQU1 170021Z 23014KT 18/M01 A2994 RMK A01 T01761005  RH  029%=      5-min Rain = 0
KQU1 170022Z 24015KT 18/M01 A2994 RMK A01 T01761005  RH  029%=      5-min Rain = 0
KQU1 170023Z 24015KT 18/M01 A2994 RMK A01 T01761005  RH  029%=      5-min Rain = 0
KQU1 170024Z 24014KT 18/M01 A2994 RMK A01 T01761005  RH  029%=      5-min Rain = 0
KQU1 170025Z 23014KT 18/M01 A2994 RMK A01 T01751005  RH  029%=      5-min Rain = 0
KQU1 170026Z 24012KT 17/M01 A2994 RMK A01 T01741005  RH  030%=      5-min Rain = 0
KQU1 170027Z 24014KT 17/M01 A2994 RMK A01 T01741005  RH  030%=      5-min Rain = 0
KQU1 170028Z 24013KT 17/M01 A2994 RMK A01 T01741005  RH  030%=      5-min Rain = 0
KQU1 170029Z 24014KT 17/M01 A2994 RMK A01 T01731005  RH  030%=      5-min Rain = 0
KQU1 170030Z 23015KT 17/M01 A2994 RMK A01 T01731005  RH  030%=      5-min Rain = 0
KQU1 170031Z 24016KT 17/M01 A2994 RMK A01 T01741005  RH  030%=      5-min Rain = 0
KQU1 170032Z 23014KT 17/M01 A2994 RMK A01 T01741006  RH  030%=      5-min Rain = 0
KQU1 170033Z 24013KT 17/M01 A2994 RMK A01 T01741006  RH  030%=      5-min Rain = 0
KQU1 170034Z 24014KT 17/M01 A2994 RMK A01 T01731006  RH  030%=      5-min Rain = 0
KQU1 170035Z 24015KT 17/M01 A2994 RMK A01 T01731006  RH  030%=      5-min Rain = 0
KQU1 170036Z 24015KT 17/M01 A2994 RMK A01 T01731006  RH  030%=      5-min Rain = 0
KQU1 170037Z 24016G21KT 17/M01 A2994 RMK A01 T01731006  RH  030%=      5-min Rain = 0
KQU1 170038Z 24015KT 17/M01 A2994 RMK A01 T01741007  RH  029%=      5-min Rain = 0
KQU1 170039Z 24017KT 17/M01 A2994 RMK A01 T01741007  RH  029%=      5-min Rain = 0
KQU1 170040Z 24017KT 17/M01 A2994 RMK A01 T01741007  RH  029%=      5-min Rain = 0
KQU1 170041Z 24016KT 18/M01 A2994 RMK A01 T01751008  RH  029%=      5-min Rain = 0
KQU1 170042Z 24017KT 18/M01 A2994 RMK A01 T01751008  RH  029%=      5-min Rain = 0
KQU1 170043Z 24017KT 18/M01 A2994 RMK A01 T01751008  RH  029%=      5-min Rain = 0
KQU1 170044Z 24016KT 18/M01 A2994 RMK A01 T01751008  RH  029%=      5-min Rain = 0
KQU1 170045Z 25016KT 17/M01 A2995 RMK A01 T01741008  RH  029%=      5-min Rain = 0
KQU1 170046Z 24018KT 18/M01 A2995 RMK A01 T01751008  RH  029%=      5-min Rain = 0
KQU1 170047Z 24014KT 17/M01 A2994 RMK A01 T01741009  RH  029%=      5-min Rain = 0
KQU1 170048Z 24016KT 17/M01 A2994 RMK A01 T01731008  RH  029%=      5-min Rain = 0
KQU1 170049Z 24015KT 17/M01 A2994 RMK A01 T01721008  RH  029%=      5-min Rain = 0
KQU1 170050Z 24015KT 17/M01 A2995 RMK A01 T01711008  RH  029%=      5-min Rain = 0
KQU1 170051Z 24015KT 17/M01 A2995 RMK A01 T01711008  RH  029%=      5-min Rain = 0
KQU1 170052Z 24016KT 17/M01 A2995 RMK A01 T01701008  RH  030%=      5-min Rain = 0
KQU1 170053Z 24017KT 17/M01 A2995 RMK A01 T01701009  RH  030%=      5-min Rain = 0
KQU1 170054Z 25016KT 17/M01 A2995 RMK A01 T01711009  RH  029%=      5-min Rain = 0
KQU1 170055Z 24015KT 17/M01 A2995 RMK A01 T01701009  RH  029%=      5-min Rain = 0
KQU1 170056Z 25016KT 17/M01 A2995 RMK A01 T01711010  RH  029%=      5-min Rain = 0
KQU1 170057Z 25016KT 17/M01 A2995 RMK A01 T01711010  RH  029%=      5-min Rain = 0
KQU1 170058Z 25014KT 17/M01 A2995 RMK A01 T01721011  RH  029%=      5-min Rain = 0
KQU1 170059Z 25016G21KT 17/M01 A2995 RMK A01 T01711011  RH  029%=      5-min Rain = 0
KQU1 170100Z 25017KT 17/M01 A2995 RMK A01 T01711012  RH  029%=      5-min Rain = 0
KQU1 170101Z 26016KT 17/M01 A2995 RMK A01 T01721012  RH  029%=      5-min Rain = 0
KQU1 170102Z 26018G25KT 17/M01 A2995 RMK A01 T01711013  RH  029%=      5-min Rain = 0
KQU1 170103Z 26018KT 17/M01 A2995 RMK A01 T01721013  RH  028%=      5-min Rain = 0
KQU1 170104Z 26015KT 17/M01 A2995 RMK A01 T01721013  RH  028%=      5-min Rain = 0
KQU1 170105Z 26017KT 17/M01 A2995 RMK A01 T01701013  RH  029%=      5-min Rain = 0
KQU1 170106Z 26017G23KT 17/M01 A2995 RMK A01 T01701013  RH  029%=      5-min Rain = 0
KQU1 170107Z 26016KT 17/M01 A2995 RMK A01 T01701014  RH  029%=      5-min Rain = 0
KQU1 170108Z 26017G23KT 17/M01 A2996 RMK A01 T01691014  RH  029%=      5-min Rain = 0
KQU1 170109Z 27018KT 17/M01 A2996 RMK A01 T01701014  RH  028%=      5-min Rain = 0
KQU1 170110Z 26017KT 17/M02 A2996 RMK A01 T01691015  RH  028%=      5-min Rain = 0
KQU1 170111Z 26020KT 17/M02 A2996 RMK A01 T01701015  RH  028%=      5-min Rain = 0
KQU1 170112Z 26017G23KT 17/M02 A2996 RMK A01 T01701015  RH  028%=      5-min Rain = 0
KQU1 170113Z 26018KT 17/M02 A2996 RMK A01 T01691016  RH  028%=      5-min Rain = 0
KQU1 170114Z 26016KT 17/M02 A2996 RMK A01 T01691016  RH  028%=      5-min Rain = 0
KQU1 170115Z 26018KT 17/M02 A2996 RMK A01 T01691016  RH  028%=      5-min Rain = 0
KQU1 170116Z 26018KT 17/M02 A2996 RMK A01 T01691016  RH  028%=      5-min Rain = 0
KQU1 170117Z 26018KT 17/M02 A2996 RMK A01 T01701016  RH  028%=      5-min Rain = 0
KQU1 170118Z 26018KT 17/M02 A2996 RMK A01 T01691016  RH  028%=      5-min Rain = 0
KQU1 170119Z 26017KT 17/M02 A2996 RMK A01 T01691017  RH  028%=      5-min Rain = 0
KQU1 170120Z 26020KT 17/M02 A2996 RMK A01 T01691017  RH  028%=      5-min Rain = 0
KQU1 170121Z 25019KT 17/M02 A2996 RMK A01 T01701017  RH  028%=      5-min Rain = 0
KQU1 170122Z 26019KT 17/M02 A2996 RMK A01 T01691017  RH  028%=      5-min Rain = 0
KQU1 170123Z 26020KT 17/M02 A2996 RMK A01 T01691017  RH  028%=      5-min Rain = 0
KQU1 170124Z 26020KT 17/M02 A2996 RMK A01 T01691017  RH  028%=      5-min Rain = 0
KQU1 170125Z 26017KT 17/M02 A2996 RMK A01 T01681017  RH  028%=      5-min Rain = 0
KQU1 170126Z 26022KT 17/M02 A2996 RMK A01 T01681017  RH  028%=      5-min Rain = 0
KQU1 170127Z 26021KT 17/M02 A2996 RMK A01 T01681017  RH  028%=      5-min Rain = 0
KQU1 170128Z 26020KT 17/M02 A2996 RMK A01 T01671017  RH  028%=      5-min Rain = 0
KQU1 170129Z 26019KT 17/M02 A2996 RMK A01 T01671017  RH  028%=      5-min Rain = 0
KQU1 170130Z 26019KT 17/M02 A2996 RMK A01 T01661017  RH  029%=      5-min Rain = 0
KQU1 170131Z 26018KT 17/M02 A2996 RMK A01 T01651017  RH  029%=      5-min Rain = 0
KQU1 170132Z 26020KT 16/M02 A2996 RMK A01 T01641017  RH  029%=      5-min Rain = 0
KQU1 170133Z 26022KT 17/M02 A2996 RMK A01 T01651017  RH  029%=      5-min Rain = 0
KQU1 170134Z 26020KT 17/M02 A2996 RMK A01 T01651017  RH  029%=      5-min Rain = 0
KQU1 170135Z 26020G25KT 16/M02 A2996 RMK A01 T01641017  RH  029%=      5-min Rain = 0
KQU1 170136Z 26019KT 16/M02 A2997 RMK A01 T01641017  RH  029%=      5-min Rain = 0
KQU1 170137Z 26020KT 16/M02 A2997 RMK A01 T01641017  RH  029%=      5-min Rain = 0
KQU1 170138Z 26018KT 16/M02 A2997 RMK A01 T01641017  RH  029%=      5-min Rain = 0
KQU1 170139Z 26018KT 16/M02 A2997 RMK A01 T01641017  RH  029%=      5-min Rain = 0
KQU1 170140Z 26020KT 16/M02 A2997 RMK A01 T01631017  RH  029%=      5-min Rain = 0
KQU1 170141Z 26019KT 16/M02 A2997 RMK A01 T01631017  RH  029%=      5-min Rain = 0
KQU1 170142Z 26020KT 16/M02 A2997 RMK A01 T01631017  RH  029%=      5-min Rain = 0
KQU1 170143Z 26020G26KT 16/M02 A2997 RMK A01 T01631017  RH  029%=      5-min Rain = 0
KQU1 170144Z 26023G28KT 16/M02 A2997 RMK A01 T01631017  RH  029%=      5-min Rain = 0
KQU1 170145Z 26020KT 16/M02 A2997 RMK A01 T01641017  RH  029%=      5-min Rain = 0
KQU1 170146Z 26022G28KT 16/M02 A2997 RMK A01 T01631017  RH  029%=      5-min Rain = 0
KQU1 170147Z 26020G26KT 16/M02 A2997 RMK A01 T01631017  RH  029%=      5-min Rain = 0
KQU1 170148Z 26020G26KT 16/M02 A2997 RMK A01 T01621017  RH  029%=      5-min Rain = 0
KQU1 170149Z 26018KT 16/M02 A2998 RMK A01 T01611016  RH  030%=      5-min Rain = 0
KQU1 170150Z 26021G26KT 16/M02 A2998 RMK A01 T01601016  RH  030%=      5-min Rain = 0
KQU1 170151Z 27022KT 16/M02 A2998 RMK A01 T01611016  RH  030%=      5-min Rain = 0
KQU1 170152Z 26020KT 16/M02 A2998 RMK A01 T01611016  RH  030%=      5-min Rain = 0
KQU1 170153Z 26018G25KT 16/M02 A2998 RMK A01 T01601016  RH  030%=      5-min Rain = 0
KQU1 170154Z 26019KT 16/M02 A2998 RMK A01 T01591016  RH  030%=      5-min Rain = 0
KQU1 170155Z 26023G28KT 16/M02 A2998 RMK A01 T01591016  RH  030%=      5-min Rain = 0
KQU1 170156Z 26022KT 16/M02 A2998 RMK A01 T01601016  RH  030%=      5-min Rain = 0
KQU1 170157Z 26017G24KT 16/M02 A2998 RMK A01 T01601016  RH  030%=      5-min Rain = 0
KQU1 170158Z 26022KT 16/M02 A2998 RMK A01 T01601016  RH  030%=      5-min Rain = 0
KQU1 170159Z 26022G29KT 16/M02 A2998 RMK A01 T01611016  RH  030%=      5-min Rain = 0
KQU1 170200Z 26019G24KT 16/M02 A2998 RMK A01 T01601016  RH  030%=      5-min Rain = 0
KQU1 170201Z 26018KT 16/M02 A2998 RMK A01 T01591016  RH  030%=      5-min Rain = 0
KQU1 170202Z 26016KT 16/M02 A2998 RMK A01 T01581016  RH  030%=      5-min Rain = 0
KQU1 170203Z 26019KT 16/M02 A2998 RMK A01 T01571016  RH  031%=      5-min Rain = 0
KQU1 170204Z 26019KT 16/M02 A2998 RMK A01 T01561016  RH  031%=      5-min Rain = 0
KQU1 170205Z 26019KT 16/M02 A2998 RMK A01 T01561016  RH  031%=      5-min Rain = 0
KQU1 170206Z 26015KT 16/M02 A2998 RMK A01 T01551016  RH  031%=      5-min Rain = 0
KQU1 170207Z 27016G21KT 15/M02 A2998 RMK A01 T01541016  RH  031%=      5-min Rain = 0
KQU1 170208Z 26016G21KT 15/M02 A2998 RMK A01 T01531016  RH  031%=      5-min Rain = 0
KQU1 170209Z 27018G23KT 15/M02 A2998 RMK A01 T01521016  RH  031%=      5-min Rain = 0
KQU1 170210Z 27020G28KT 15/M02 A2998 RMK A01 T01531016  RH  031%=      5-min Rain = 0
KQU1 170211Z 27015KT 15/M02 A2998 RMK A01 T01521016  RH  031%=      5-min Rain = 0
KQU1 170212Z 27019KT 15/M02 A2998 RMK A01 T01521016  RH  032%=      5-min Rain = 0
KQU1 170213Z 26023G28KT 15/M02 A2998 RMK A01 T01531016  RH  031%=      5-min Rain = 0
KQU1 170214Z 27020KT 15/M02 A2998 RMK A01 T01541016  RH  031%=      5-min Rain = 0
KQU1 170215Z 27023G29KT 16/M02 A2998 RMK A01 T01551016  RH  031%=      5-min Rain = 0
KQU1 170216Z 26020G25KT 16/M02 A2998 RMK A01 T01551016  RH  031%=      5-min Rain = 0
KQU1 170217Z 26022KT 16/M02 A2998 RMK A01 T01551016  RH  031%=      5-min Rain = 0
KQU1 170218Z 26020KT 16/M02 A2998 RMK A01 T01551016  RH  031%=      5-min Rain = 0
KQU1 170219Z 26021KT 15/M02 A2998 RMK A01 T01541016  RH  031%=      5-min Rain = 0
KQU1 170220Z 26022G27KT 15/M02 A2998 RMK A01 T01531016  RH  031%=      5-min Rain = 0
KQU1 170221Z 26020KT 15/M02 A2998 RMK A01 T01531016  RH  031%=      5-min Rain = 0
KQU1 170222Z 26022KT 15/M02 A2998 RMK A01 T01521016  RH  031%=      5-min Rain = 0
KQU1 170223Z 26023G28KT 15/M02 A2998 RMK A01 T01531016  RH  031%=      5-min Rain = 0
KQU1 170224Z 26020G25KT 15/M02 A2998 RMK A01 T01531016  RH  031%=      5-min Rain = 0
KQU1 170225Z 26020G26KT 15/M02 A2998 RMK A01 T01531016  RH  031%=      5-min Rain = 0
KQU1 170226Z 26020G25KT 15/M02 A2998 RMK A01 T01521016  RH  031%=      5-min Rain = 0
KQU1 170227Z 26020KT 15/M02 A2998 RMK A01 T01521017  RH  031%=      5-min Rain = 0
KQU1 170228Z 26021KT 15/M02 A2998 RMK A01 T01521017  RH  031%=      5-min Rain = 0
KQU1 170229Z 26021KT 15/M02 A2998 RMK A01 T01531017  RH  031%=      5-min Rain = 0
KQU1 170230Z 26022KT 15/M02 A2998 RMK A01 T01531017  RH  031%=      5-min Rain = 0
KQU1 170231Z 26022KT 15/M02 A2998 RMK A01 T01531017  RH  031%=      5-min Rain = 0
KQU1 170232Z 26023G28KT 15/M02 A2998 RMK A01 T01531017  RH  031%=      5-min Rain = 0
KQU1 170233Z 26018G23KT 15/M02 A2998 RMK A01 T01521017  RH  031%=      5-min Rain = 0
KQU1 170234Z 26022G28KT 15/M02 A2998 RMK A01 T01521017  RH  031%=      5-min Rain = 0
KQU1 170235Z 26021G28KT 15/M02 A2998 RMK A01 T01521017  RH  031%=      5-min Rain = 0
KQU1 170236Z 26024KT 15/M02 A2998 RMK A01 T01521017  RH  031%=      5-min Rain = 0
KQU1 170237Z 26023G29KT 15/M02 A2998 RMK A01 T01521017  RH  031%=      5-min Rain = 0
KQU1 170238Z 26023KT 15/M02 A2998 RMK A01 T01521017  RH  031%=      5-min Rain = 0
KQU1 170239Z 26023KT 15/M02 A2998 RMK A01 T01521018  RH  031%=      5-min Rain = 0
KQU1 170240Z 26024KT 15/M02 A2998 RMK A01 T01511018  RH  031%=      5-min Rain = 0
KQU1 170241Z 26021G26KT 15/M02 A2998 RMK A01 T01511018  RH  031%=      5-min Rain = 0
KQU1 170242Z 26022G27KT 15/M02 A2998 RMK A01 T01501018  RH  032%=      5-min Rain = 0
KQU1 170243Z 26021KT 15/M02 A2998 RMK A01 T01491018  RH  032%=      5-min Rain = 0
KQU1 170244Z 26024KT 15/M02 A2998 RMK A01 T01491018  RH  032%=      5-min Rain = 0
KQU1 170245Z 26021G27KT 15/M02 A2998 RMK A01 T01491018  RH  032%=      5-min Rain = 0
KQU1 170246Z 27022G30KT 15/M02 A2998 RMK A01 T01481018  RH  032%=      5-min Rain = 0
KQU1 170247Z 27019G26KT 15/M02 A2998 RMK A01 T01481018  RH  032%=      5-min Rain = 0
KQU1 170248Z 26023G29KT 15/M02 A2998 RMK A01 T01481018  RH  032%=      5-min Rain = 0
KQU1 170249Z 27021G27KT 15/M02 A2998 RMK A01 T01481018  RH  032%=      5-min Rain = 0
KQU1 170250Z 27026KT 15/M02 A2998 RMK A01 T01481018  RH  032%=      5-min Rain = 0
KQU1 170251Z 26020KT 15/M02 A2998 RMK A01 T01481018  RH  032%=      5-min Rain = 0
KQU1 170252Z 27026G34KT 15/M02 A2998 RMK A01 T01471018  RH  032%=      5-min Rain = 0
KQU1 170253Z 26021KT 15/M02 A2998 RMK A01 T01481019  RH  032%=      5-min Rain = 0
KQU1 170254Z 27019G25KT 15/M02 A2998 RMK A01 T01471019  RH  032%=      5-min Rain = 0
KQU1 170255Z 27022G29KT 15/M02 A2998 RMK A01 T01471019  RH  032%=      5-min Rain = 0
KQU1 170256Z 26022KT 15/M02 A2998 RMK A01 T01471019  RH  032%=      5-min Rain = 0
KQU1 170257Z 27022G28KT 15/M02 A2998 RMK A01 T01471019  RH  032%=      5-min Rain = 0
KQU1 170258Z 27021G27KT 15/M02 A2998 RMK A01 T01471019  RH  032%=      5-min Rain = 0
KQU1 170259Z 26017G24KT 15/M02 A2998 RMK A01 T01461019  RH  032%=      5-min Rain = 0
KQU1 170300Z 27025KT 15/M02 A2997 RMK A01 T01461019  RH  032%=      5-min Rain = 0
KQU1 170301Z 27026G34KT 15/M02 A2997 RMK A01 T01481019  RH  032%=      5-min Rain = 0
KQU1 170302Z 27024G29KT 15/M02 A2997 RMK A01 T01491020  RH  031%=      5-min Rain = 0
KQU1 170303Z 27021G28KT 15/M02 A2998 RMK A01 T01481020  RH  031%=      5-min Rain = 0
KQU1 170304Z 27025KT 15/M02 A2997 RMK A01 T01481020  RH  031%=      5-min Rain = 0
KQU1 170305Z 27024G29KT 15/M02 A2998 RMK A01 T01481020  RH  031%=      5-min Rain = 0
KQU1 170306Z 28024G33KT 15/M02 A2997 RMK A01 T01491020  RH  031%=      5-min Rain = 0
KQU1 170307Z 27026G33KT 15/M02 A2998 RMK A01 T01491020  RH  031%=      5-min Rain = 0
KQU1 170308Z 27026G33KT 15/M02 A2997 RMK A01 T01491020  RH  031%=      5-min Rain = 0
KQU1 170309Z 27022G27KT 15/M02 A2998 RMK A01 T01491020  RH  031%=      5-min Rain = 0
KQU1 170310Z 27023G30KT 15/M02 A2998 RMK A01 T01481020  RH  031%=      5-min Rain = 0
KQU1 170311Z 27024G29KT 15/M02 A2997 RMK A01 T01481020  RH  031%=      5-min Rain = 0
KQU1 170312Z 28023G29KT 15/M02 A2998 RMK A01 T01471020  RH  032%=      5-min Rain = 0
KQU1 170313Z 27022G29KT 15/M02 A2998 RMK A01 T01461020  RH  032%=      5-min Rain = 0
KQU1 170314Z 28024G31KT 15/M02 A2998 RMK A01 T01461020  RH  032%=      5-min Rain = 0
KQU1 170315Z 28022G31KT 15/M02 A2998 RMK A01 T01461020  RH  032%=      5-min Rain = 0
KQU1 170316Z 28022G29KT 15/M02 A2998 RMK A01 T01451020  RH  032%=      5-min Rain = 0
KQU1 170317Z 27021KT 14/M02 A2998 RMK A01 T01441020  RH  032%=      5-min Rain = 0
KQU1 170318Z 27021G28KT 14/M02 A2998 RMK A01 T01441020  RH  032%=      5-min Rain = 0
KQU1 170319Z 27026G31KT 14/M02 A2998 RMK A01 T01441020  RH  032%=      5-min Rain = 0
KQU1 170320Z 28019G24KT 14/M02 A2998 RMK A01 T01441020  RH  032%=      5-min Rain = 0
KQU1 170321Z 28023G29KT 14/M02 A2998 RMK A01 T01431020  RH  032%=      5-min Rain = 0
KQU1 170322Z 28024G29KT 14/M02 A2998 RMK A01 T01431020  RH  032%=      5-min Rain = 0
KQU1 170323Z 27023G29KT 14/M02 A2998 RMK A01 T01431020  RH  032%=      5-min Rain = 0
KQU1 170324Z 27024G29KT 14/M02 A2998 RMK A01 T01421020  RH  032%=      5-min Rain = 0
KQU1 170325Z 27020G25KT 14/M02 A2998 RMK A01 T01421020  RH  033%=      5-min Rain = 0
KQU1 170326Z 27025KT 14/M02 A2998 RMK A01 T01411020  RH  033%=      5-min Rain = 0
KQU1 170327Z 28021KT 14/M02 A2998 RMK A01 T01411020  RH  033%=      5-min Rain = 0
KQU1 170328Z 27021G29KT 14/M02 A2998 RMK A01 T01401020  RH  033%=      5-min Rain = 0
KQU1 170329Z 28023G28KT 14/M02 A2998 RMK A01 T01401020  RH  033%=      5-min Rain = 0
KQU1 170330Z 27020G26KT 14/M02 A2998 RMK A01 T01401020  RH  033%=      5-min Rain = 0
KQU1 170331Z 27020G29KT 14/M02 A2998 RMK A01 T01391020  RH  033%=      5-min Rain = 0
KQU1 170332Z 28020G25KT 14/M02 A2998 RMK A01 T01391020  RH  033%=      5-min Rain = 0
KQU1 170333Z 27018KT 14/M02 A2998 RMK A01 T01381020  RH  033%=      5-min Rain = 0
KQU1 170334Z 28023KT 14/M02 A2998 RMK A01 T01381020  RH  034%=      5-min Rain = 0
KQU1 170335Z 27025G30KT 14/M02 A2998 RMK A01 T01381020  RH  034%=      5-min Rain = 0
KQU1 170336Z 27022G28KT 14/M02 A2998 RMK A01 T01381020  RH  034%=      5-min Rain = 0
KQU1 170337Z 27023G30KT 14/M02 A2998 RMK A01 T01381020  RH  034%=      5-min Rain = 0
KQU1 170338Z 27022G27KT 14/M02 A2998 RMK A01 T01381020  RH  033%=      5-min Rain = 0
KQU1 170339Z 28022KT 14/M02 A2998 RMK A01 T01381020  RH  034%=      5-min Rain = 0
KQU1 170340Z 28022G28KT 14/M02 A2998 RMK A01 T01371020  RH  034%=      5-min Rain = 0
KQU1 170341Z 27026G32KT 14/M02 A2998 RMK A01 T01371020  RH  033%=      5-min Rain = 0
KQU1 170342Z 27024G29KT 14/M02 A2998 RMK A01 T01371020  RH  034%=      5-min Rain = 0
KQU1 170343Z 28030G38KT 14/M02 A2997 RMK A01 T01371021  RH  033%=      5-min Rain = 0
KQU1 170344Z 27025KT 14/M02 A2998 RMK A01 T01371021  RH  033%=      5-min Rain = 0
KQU1 170345Z 28024G29KT 14/M02 A2998 RMK A01 T01371021  RH  034%=      5-min Rain = 0
KQU1 170346Z 27021G26KT 14/M02 A2998 RMK A01 T01361021  RH  034%=      5-min Rain = 0
KQU1 170347Z 28023G28KT 14/M02 A2998 RMK A01 T01361021  RH  034%=      5-min Rain = 0
KQU1 170348Z 27023G28KT 14/M02 A2998 RMK A01 T01361021  RH  034%=      5-min Rain = 0
KQU1 170349Z 27026G31KT 14/M02 A2998 RMK A01 T01361021  RH  034%=      5-min Rain = 0
KQU1 170350Z 27023KT 14/M02 A2998 RMK A01 T01361021  RH  034%=      5-min Rain = 0
KQU1 170351Z 28022G27KT 14/M02 A2998 RMK A01 T01361021  RH  034%=      5-min Rain = 0
KQU1 170352Z 27026G33KT 14/M02 A2998 RMK A01 T01361021  RH  034%=      5-min Rain = 0
KQU1 170353Z 27023G35KT 14/M02 A2998 RMK A01 T01371022  RH  033%=      5-min Rain = 0
KQU1 170354Z 27023G29KT 14/M02 A2998 RMK A01 T01361022  RH  033%=      5-min Rain = 0
KQU1 170355Z 27026G31KT 14/M02 A2998 RMK A01 T01371022  RH  033%=      5-min Rain = 0
KQU1 170356Z 27027G32KT 14/M02 A2998 RMK A01 T01371022  RH  033%=      5-min Rain = 0
KQU1 170357Z 28026G31KT 14/M02 A2998 RMK A01 T01381022  RH  033%=      5-min Rain = 0
KQU1 170358Z 27026KT 14/M02 A2998 RMK A01 T01381022  RH  033%=      5-min Rain = 0
KQU1 170359Z 27028G34KT 14/M02 A2998 RMK A01 T01381022  RH  033%=      5-min Rain = 0
KQU1 170400Z 27027KT 14/M02 A2998 RMK A01 T01391023  RH  033%=      5-min Rain = 0
KQU1 170401Z 27025KT 14/M02 A2998 RMK A01 T01381023  RH  033%=      5-min Rain = 0
KQU1 170402Z 28024KT 14/M02 A2998 RMK A01 T01381023  RH  033%=      5-min Rain = 0
KQU1 170403Z 27022G32KT 14/M02 A2998 RMK A01 T01371023  RH  033%=      5-min Rain = 0
KQU1 170404Z 27026G33KT 14/M02 A2998 RMK A01 T01381023  RH  033%=      5-min Rain = 0
KQU1 170405Z 27024G29KT 14/M02 A2999 RMK A01 T01381023  RH  033%=      5-min Rain = 0
KQU1 170406Z 27023KT 14/M02 A2999 RMK A01 T01381023  RH  033%=      5-min Rain = 0
KQU1 170407Z 28023KT 14/M02 A2999 RMK A01 T01371023  RH  033%=      5-min Rain = 0
KQU1 170408Z 27025KT 14/M02 A2999 RMK A01 T01381023  RH  033%=      5-min Rain = 0
KQU1 170409Z 28023G31KT 14/M02 A2999 RMK A01 T01381023  RH  033%=      5-min Rain = 0
KQU1 170410Z 27024G30KT 14/M02 A2999 RMK A01 T01381023  RH  033%=      5-min Rain = 0
KQU1 170411Z 27023G29KT 14/M02 A2999 RMK A01 T01381023  RH  033%=      5-min Rain = 0
KQU1 170412Z 27023G30KT 14/M02 A2999 RMK A01 T01381024  RH  033%=      5-min Rain = 0
KQU1 170413Z 27025G31KT 14/M02 A2999 RMK A01 T01381024  RH  033%=      5-min Rain = 0
KQU1 170414Z 27023G29KT 14/M02 A2999 RMK A01 T01371024  RH  033%=      5-min Rain = 0
KQU1 170415Z 28026G33KT 14/M02 A2999 RMK A01 T01381024  RH  033%=      5-min Rain = 0
KQU1 170416Z 27023G29KT 14/M02 A2999 RMK A01 T01371024  RH  033%=      5-min Rain = 0
KQU1 170417Z 27028G34KT 14/M02 A2999 RMK A01 T01371024  RH  033%=      5-min Rain = 0
KQU1 170418Z 28026G34KT 14/M02 A2999 RMK A01 T01381023  RH  033%=      5-min Rain = 0
KQU1 170419Z 27024KT 14/M02 A2999 RMK A01 T01381024  RH  033%=      5-min Rain = 0
KQU1 170420Z 27024KT 14/M02 A2999 RMK A01 T01371024  RH  033%=      5-min Rain = 0
KQU1 170421Z 28023G28KT 14/M02 A2999 RMK A01 T01371023  RH  033%=      5-min Rain = 0
KQU1 170422Z 27024G30KT 14/M02 A2999 RMK A01 T01361023  RH  033%=      5-min Rain = 0
KQU1 170423Z 28023G30KT 14/M02 A2999 RMK A01 T01361023  RH  033%=      5-min Rain = 0
KQU1 170424Z 27024G31KT 14/M02 A2999 RMK A01 T01361023  RH  033%=      5-min Rain = 0
KQU1 170425Z 27025G31KT 14/M02 A2999 RMK A01 T01361023  RH  033%=      5-min Rain = 0
KQU1 170426Z 28022KT 14/M02 A2999 RMK A01 T01351023  RH  033%=      5-min Rain = 0
KQU1 170427Z 27023KT 14/M02 A2999 RMK A01 T01351023  RH  033%=      5-min Rain = 0
KQU1 170428Z 27022KT 14/M02 A2999 RMK A01 T01351023  RH  033%=      5-min Rain = 0
KQU1 170429Z 28023G30KT 14/M02 A2999 RMK A01 T01351023  RH  033%=      5-min Rain = 0
KQU1 170430Z 27025G31KT 13/M02 A2999 RMK A01 T01341023  RH  034%=      5-min Rain = 0
KQU1 170431Z 27024KT 14/M02 A2999 RMK A01 T01351023  RH  034%=      5-min Rain = 0
KQU1 170432Z 28028KT 14/M02 A2999 RMK A01 T01351023  RH  034%=      5-min Rain = 0
KQU1 170433Z 27025G32KT 13/M02 A2999 RMK A01 T01341023  RH  034%=      5-min Rain = 0
KQU1 170434Z 28025G31KT 14/M02 A2999 RMK A01 T01351023  RH  034%=      5-min Rain = 0
KQU1 170435Z 28025G30KT 13/M02 A2999 RMK A01 T01341023  RH  034%=      5-min Rain = 0
KQU1 170436Z 28022G28KT 13/M02 A30 RMK A01 T01341023  RH  034%=      5-min Rain = 0
KQU1 170437Z 27024G30KT 13/M02 A30 RMK A01 T01331022  RH  034%=      5-min Rain = 0
KQU1 170438Z 28023G29KT 13/M02 A30 RMK A01 T01331022  RH  034%=      5-min Rain = 0
KQU1 170439Z 27020G26KT 13/M02 A30 RMK A01 T01331022  RH  034%=      5-min Rain = 0
KQU1 170440Z 28020KT 13/M02 A30 RMK A01 T01321022  RH  034%=      5-min Rain = 0
KQU1 170441Z 28019KT 13/M02 A30 RMK A01 T01311022  RH  035%=      5-min Rain = 0
KQU1 170442Z 27024G29KT 13/M02 A30 RMK A01 T01311021  RH  035%=      5-min Rain = 0
KQU1 170443Z 28021G28KT 13/M02 A30 RMK A01 T01311021  RH  035%=      5-min Rain = 0
KQU1 170444Z 27024KT 13/M02 A30 RMK A01 T01301021  RH  035%=      5-min Rain = 0
KQU1 170445Z 28026G32KT 13/M02 A30 RMK A01 T01311021  RH  035%=      5-min Rain = 0
KQU1 170446Z 27025G30KT 13/M02 A30 RMK A01 T01311021  RH  035%=      5-min Rain = 0
KQU1 170447Z 27027KT 13/M02 A30 RMK A01 T01311021  RH  035%=      5-min Rain = 0
KQU1 170448Z 28026G31KT 13/M02 A30 RMK A01 T01311021  RH  035%=      5-min Rain = 0
KQU1 170449Z 27023G30KT 13/M02 A30 RMK A01 T01311021  RH  035%=      5-min Rain = 0
KQU1 170450Z 27023G30KT 13/M02 A30 RMK A01 T01311021  RH  035%=      5-min Rain = 0
KQU1 170451Z 28026KT 13/M02 A30 RMK A01 T01301020  RH  035%=      5-min Rain = 0
KQU1 170452Z 28024KT 13/M02 A30 RMK A01 T01301020  RH  035%=      5-min Rain = 0
KQU1 170453Z 28026G34KT 13/M02 A30 RMK A01 T01311020  RH  035%=      5-min Rain = 0
KQU1 170454Z 28025G35KT 13/M02 A30 RMK A01 T01311021  RH  035%=      5-min Rain = 0
KQU1 170455Z 28024G30KT 13/M02 A30 RMK A01 T01311020  RH  035%=      5-min Rain = 0
KQU1 170456Z 28019KT 13/M02 A30 RMK A01 T01301020  RH  035%=      5-min Rain = 0
KQU1 170457Z 28022G29KT 13/M02 A30 RMK A01 T01301020  RH  035%=      5-min Rain = 0
KQU1 170458Z 28024G31KT 13/M02 A30 RMK A01 T01301020  RH  035%=      5-min Rain = 0
KQU1 170459Z 28024G30KT 13/M02 A30 RMK A01 T01311020  RH  035%=      5-min Rain = 0
KQU1 170500Z 28027G34KT 13/M02 A30 RMK A01 T01321020  RH  035%=      5-min Rain = 0
KQU1 170501Z 28023KT 13/M02 A30 RMK A01 T01331020  RH  035%=      5-min Rain = 0
KQU1 170502Z 27022KT 13/M02 A30 RMK A01 T01321020  RH  035%=      5-min Rain = 0
KQU1 170503Z 28023G30KT 13/M02 A30 RMK A01 T01321020  RH  035%=      5-min Rain = 0
KQU1 170504Z 28024G33KT 13/M02 A30 RMK A01 T01321020  RH  035%=      5-min Rain = 0
KQU1 170505Z 28021G27KT 13/M02 A3001 RMK A01 T01311020  RH  035%=      5-min Rain = 0
KQU1 170506Z 28022G27KT 13/M02 A3001 RMK A01 T01311020  RH  035%=      5-min Rain = 0
KQU1 170507Z 28023G28KT 13/M02 A3001 RMK A01 T01311020  RH  035%=      5-min Rain = 0
KQU1 170508Z 28022G27KT 13/M02 A3001 RMK A01 T01311019  RH  035%=      5-min Rain = 0
KQU1 170509Z 28021KT 13/M02 A3001 RMK A01 T01311019  RH  035%=      5-min Rain = 0
KQU1 170510Z 28022G28KT 13/M02 A3001 RMK A01 T01311019  RH  035%=      5-min Rain = 0
KQU1 170511Z 28021G26KT 13/M02 A3001 RMK A01 T01311019  RH  035%=      5-min Rain = 0
KQU1 170512Z 28025G32KT 13/M02 A3001 RMK A01 T01311019  RH  035%=      5-min Rain = 0
KQU1 170513Z 28024G33KT 13/M02 A3001 RMK A01 T01311019  RH  035%=      5-min Rain = 0
KQU1 170514Z 28023KT 13/M02 A3001 RMK A01 T01311019  RH  035%=      5-min Rain = 0
KQU1 170515Z 29022G28KT 13/M02 A3001 RMK A01 T01311019  RH  035%=      5-min Rain = 0
KQU1 170516Z 28024G32KT 13/M02 A3001 RMK A01 T01311019  RH  035%=      5-min Rain = 0
KQU1 170517Z 28025G34KT 13/M02 A3001 RMK A01 T01321019  RH  035%=      5-min Rain = 0
KQU1 170518Z 27022G27KT 13/M02 A3001 RMK A01 T01321019  RH  035%=      5-min Rain = 0
KQU1 170519Z 28025G31KT 13/M02 A3001 RMK A01 T01321019  RH  035%=      5-min Rain = 0
KQU1 170520Z 28023G28KT 13/M02 A3001 RMK A01 T01321019  RH  035%=      5-min Rain = 0
KQU1 170521Z 28018G25KT 13/M02 A3001 RMK A01 T01311019  RH  035%=      5-min Rain = 0
KQU1 170522Z 28021G28KT 13/M02 A3001 RMK A01 T01311018  RH  036%=      5-min Rain = 0
KQU1 170523Z 28024KT 13/M02 A3001 RMK A01 T01311018  RH  036%=      5-min Rain = 0
KQU1 170524Z 28024KT 13/M02 A3001 RMK A01 T01311018  RH  035%=      5-min Rain = 0
KQU1 170525Z 28023KT 13/M02 A3001 RMK A01 T01311018  RH  035%=      5-min Rain = 0
KQU1 170526Z 28024G30KT 13/M02 A3001 RMK A01 T01321018  RH  035%=      5-min Rain = 0
KQU1 170527Z 28021G26KT 13/M02 A3001 RMK A01 T01321018  RH  035%=      5-min Rain = 0
KQU1 170528Z 28021G28KT 13/M02 A3001 RMK A01 T01321018  RH  035%=      5-min Rain = 0
KQU1 170529Z 28025G30KT 13/M02 A3001 RMK A01 T01321018  RH  035%=      5-min Rain = 0
KQU1 170530Z 28023G30KT 13/M02 A3001 RMK A01 T01331018  RH  035%=      5-min Rain = 0
KQU1 170531Z 28024G29KT 13/M02 A3001 RMK A01 T01331018  RH  035%=      5-min Rain = 0
KQU1 170532Z 28026G32KT 13/M02 A3001 RMK A01 T01331018  RH  035%=      5-min Rain = 0
KQU1 170533Z 28021G27KT 13/M02 A3001 RMK A01 T01331018  RH  035%=      5-min Rain = 0
KQU1 170534Z 28024KT 13/M02 A3002 RMK A01 T01331018  RH  035%=      5-min Rain = 0
KQU1 170535Z 28024G32KT 13/M02 A3002 RMK A01 T01331018  RH  035%=      5-min Rain = 0
KQU1 170536Z 28025G31KT 13/M02 A3002 RMK A01 T01341018  RH  035%=      5-min Rain = 0
KQU1 170537Z 28024G30KT 13/M02 A3002 RMK A01 T01341018  RH  035%=      5-min Rain = 0
KQU1 170538Z 28023G33KT 13/M02 A3002 RMK A01 T01341018  RH  035%=      5-min Rain = 0
KQU1 170539Z 28023KT 13/M02 A3002 RMK A01 T01331018  RH  035%=      5-min Rain = 0
KQU1 170540Z 28024G33KT 13/M02 A3002 RMK A01 T01341018  RH  035%=      5-min Rain = 0
KQU1 170541Z 28023KT 13/M02 A3002 RMK A01 T01341018  RH  035%=      5-min Rain = 0
KQU1 170542Z 28024KT 13/M02 A3002 RMK A01 T01331018  RH  035%=      5-min Rain = 0
KQU1 170543Z 28022G28KT 13/M02 A3002 RMK A01 T01341018  RH  035%=      5-min Rain = 0
KQU1 170544Z 29024G29KT 13/M02 A3002 RMK A01 T01331018  RH  035%=      5-min Rain = 0
KQU1 170545Z 28026G31KT 13/M02 A3001 RMK A01 T01331018  RH  035%=      5-min Rain = 0
KQU1 170546Z 29019G25KT 13/M02 A3002 RMK A01 T01331017  RH  035%=      5-min Rain = 0
KQU1 170547Z 28022KT 13/M02 A3002 RMK A01 T01331017  RH  035%=      5-min Rain = 0
KQU1 170548Z 28022G27KT 13/M02 A3002 RMK A01 T01331017  RH  035%=      5-min Rain = 0
KQU1 170549Z 29021KT 13/M02 A3002 RMK A01 T01321017  RH  036%=      5-min Rain = 0
KQU1 170550Z 28020G26KT 13/M02 A3002 RMK A01 T01321017  RH  036%=      5-min Rain = 0
KQU1 170551Z 29026G31KT 13/M02 A3002 RMK A01 T01321017  RH  036%=      5-min Rain = 0
KQU1 170552Z 29019G28KT 13/M02 A3002 RMK A01 T01321017  RH  036%=      5-min Rain = 0
KQU1 170553Z 29020KT 13/M02 A3002 RMK A01 T01321017  RH  036%=      5-min Rain = 0
KQU1 170554Z 29025KT 13/M02 A3002 RMK A01 T01321016  RH  036%=      5-min Rain = 0
KQU1 170555Z 29025G32KT 13/M02 A3002 RMK A01 T01321017  RH  036%=      5-min Rain = 0
KQU1 170556Z 29025G32KT 13/M02 A3002 RMK A01 T01321017  RH  036%=      5-min Rain = 0
KQU1 170557Z 28025KT 13/M02 A3002 RMK A01 T01331017  RH  036%=      5-min Rain = 0
KQU1 170558Z 28024G29KT 13/M02 A3002 RMK A01 T01331017  RH  036%=      5-min Rain = 0
KQU1 170559Z 28023KT 13/M02 A3002 RMK A01 T01321017  RH  036%=      5-min Rain = 0

Page generated in 0.0974 seconds.